<?xml version="1.0" encoding="UTF-8"?>
<gpx xmlns:xsi="http://www.w3.org/2001/XMLSchema-instance" xmlns="http://www.topografix.com/GPX/1/1" xmlns:gpxdata="http://www.cluetrust.com/XML/GPXDATA/1/0" xsi:schemaLocation="http://www.topografix.com/GPX/1/1 http://www.topografix.com/GPX/1/1/gpx.xsd http://www.cluetrust.com/XML/GPXDATA/1/0 http://www.cluetrust.com/Schemas/gpxdata10.xsd" version="1.1" creator="http://ridewithgps.com/">
  <metadata>
    <name>Mighty Hamptons Triathlon Bike Course</name>
    <link href="https://ridewithgps.com/routes/1981832">
      <text>Mighty Hamptons Triathlon Bike Course</text>
    </link>
    <time>2012-12-09T19:55:25Z</time>
  </metadata>
  <trk>
    <name>Mighty Hamptons Triathlon Bike Course</name>
    <trkseg>
      <trkpt lat="40.998229" lon="-72.3226681">
        <ele>1.1</ele>
        <time>2021-09-11T08:30:00.000Z</time>
      </trkpt>
      <trkpt lat="40.9981824" lon="-72.3226252">
        <ele>1</ele>
        <time>2021-09-11T08:30:01.000Z</time>
      </trkpt>
      <trkpt lat="40.9980873" lon="-72.3227405">
        <ele>1</ele>
        <time>2021-09-11T08:30:02.000Z</time>
      </trkpt>
      <trkpt lat="40.99807" lon="-72.32272">
        <ele>1</ele>
        <time>2021-09-11T08:30:02.000Z</time>
      </trkpt>
      <trkpt lat="40.99779" lon="-72.32312">
        <ele>1</ele>
        <time>2021-09-11T08:30:07.000Z</time>
      </trkpt>
      <trkpt lat="40.99729" lon="-72.32386">
        <ele>1</ele>
        <time>2021-09-11T08:30:15.000Z</time>
      </trkpt>
      <trkpt lat="40.99633" lon="-72.32526">
        <ele>0.9</ele>
        <time>2021-09-11T08:30:31.000Z</time>
      </trkpt>
      <trkpt lat="40.99599" lon="-72.32576">
        <ele>0.9</ele>
        <time>2021-09-11T08:30:37.000Z</time>
      </trkpt>
      <trkpt lat="40.99586" lon="-72.32594">
        <ele>0.9</ele>
        <time>2021-09-11T08:30:39.000Z</time>
      </trkpt>
      <trkpt lat="40.99569" lon="-72.3262399">
        <ele>0.8</ele>
        <time>2021-09-11T08:30:42.000Z</time>
      </trkpt>
      <trkpt lat="40.99557" lon="-72.3264699">
        <ele>0.8</ele>
        <time>2021-09-11T08:30:44.000Z</time>
      </trkpt>
      <trkpt lat="40.9954899" lon="-72.32664">
        <ele>0.7</ele>
        <time>2021-09-11T08:30:46.000Z</time>
      </trkpt>
      <trkpt lat="40.99539" lon="-72.32688">
        <ele>0.7</ele>
        <time>2021-09-11T08:30:48.000Z</time>
      </trkpt>
      <trkpt lat="40.99529" lon="-72.32713">
        <ele>0.6</ele>
        <time>2021-09-11T08:30:50.000Z</time>
      </trkpt>
      <trkpt lat="40.99527" lon="-72.3272">
        <ele>0.7</ele>
        <time>2021-09-11T08:30:51.000Z</time>
      </trkpt>
      <trkpt lat="40.99522" lon="-72.32735">
        <ele>0.7</ele>
        <time>2021-09-11T08:30:52.000Z</time>
      </trkpt>
      <trkpt lat="40.99514" lon="-72.32762">
        <ele>0.7</ele>
        <time>2021-09-11T08:30:54.000Z</time>
      </trkpt>
      <trkpt lat="40.99505" lon="-72.3279999">
        <ele>0.7</ele>
        <time>2021-09-11T08:30:57.000Z</time>
      </trkpt>
      <trkpt lat="40.9950199" lon="-72.32816">
        <ele>0.7</ele>
        <time>2021-09-11T08:30:58.000Z</time>
      </trkpt>
      <trkpt lat="40.99498" lon="-72.3283998">
        <ele>0.7</ele>
        <time>2021-09-11T08:31:00.000Z</time>
      </trkpt>
      <trkpt lat="40.99494" lon="-72.32865">
        <ele>0.8</ele>
        <time>2021-09-11T08:31:02.000Z</time>
      </trkpt>
      <trkpt lat="40.9949299" lon="-72.32875">
        <ele>0.8</ele>
        <time>2021-09-11T08:31:03.000Z</time>
      </trkpt>
      <trkpt lat="40.99492" lon="-72.3288499">
        <ele>0.9</ele>
        <time>2021-09-11T08:31:04.000Z</time>
      </trkpt>
      <trkpt lat="40.9949" lon="-72.32911">
        <ele>0.9</ele>
        <time>2021-09-11T08:31:06.000Z</time>
      </trkpt>
      <trkpt lat="40.99489" lon="-72.32955">
        <ele>1.2</ele>
        <time>2021-09-11T08:31:10.000Z</time>
      </trkpt>
      <trkpt lat="40.99487" lon="-72.3297499">
        <ele>1.2</ele>
        <time>2021-09-11T08:31:12.000Z</time>
      </trkpt>
      <trkpt lat="40.99486" lon="-72.3299399">
        <ele>1.3</ele>
        <time>2021-09-11T08:31:14.000Z</time>
      </trkpt>
      <trkpt lat="40.99484" lon="-72.3301199">
        <ele>1.3</ele>
        <time>2021-09-11T08:31:16.000Z</time>
      </trkpt>
      <trkpt lat="40.99482" lon="-72.33028">
        <ele>1.3</ele>
        <time>2021-09-11T08:31:17.000Z</time>
      </trkpt>
      <trkpt lat="40.99479" lon="-72.3304299">
        <ele>1.3</ele>
        <time>2021-09-11T08:31:18.000Z</time>
      </trkpt>
      <trkpt lat="40.99475" lon="-72.3306499">
        <ele>1.3</ele>
        <time>2021-09-11T08:31:20.000Z</time>
      </trkpt>
      <trkpt lat="40.99468" lon="-72.33096">
        <ele>1.3</ele>
        <time>2021-09-11T08:31:23.000Z</time>
      </trkpt>
      <trkpt lat="40.99457" lon="-72.3313699">
        <ele>1.6</ele>
        <time>2021-09-11T08:31:27.000Z</time>
      </trkpt>
      <trkpt lat="40.99454" lon="-72.33149">
        <ele>1.8</ele>
        <time>2021-09-11T08:31:28.000Z</time>
      </trkpt>
      <trkpt lat="40.99452" lon="-72.3316199">
        <ele>1.9</ele>
        <time>2021-09-11T08:31:29.000Z</time>
      </trkpt>
      <trkpt lat="40.99441" lon="-72.33204">
        <ele>2.8</ele>
        <time>2021-09-11T08:31:33.000Z</time>
      </trkpt>
      <trkpt lat="40.99439" lon="-72.3321">
        <ele>3</ele>
        <time>2021-09-11T08:31:34.000Z</time>
      </trkpt>
      <trkpt lat="40.99438" lon="-72.3321799">
        <ele>3.1</ele>
        <time>2021-09-11T08:31:35.000Z</time>
      </trkpt>
      <trkpt lat="40.99437" lon="-72.3322498">
        <ele>3.2</ele>
        <time>2021-09-11T08:31:36.000Z</time>
      </trkpt>
      <trkpt lat="40.99435" lon="-72.3323199">
        <ele>3.4</ele>
        <time>2021-09-11T08:31:37.000Z</time>
      </trkpt>
      <trkpt lat="40.99435" lon="-72.33237">
        <ele>3.5</ele>
        <time>2021-09-11T08:31:37.000Z</time>
      </trkpt>
      <trkpt lat="40.99435" lon="-72.3324298">
        <ele>3.6</ele>
        <time>2021-09-11T08:31:38.000Z</time>
      </trkpt>
      <trkpt lat="40.99435" lon="-72.33253">
        <ele>3.9</ele>
        <time>2021-09-11T08:31:39.000Z</time>
      </trkpt>
      <trkpt lat="40.99459" lon="-72.3330299">
        <ele>5.5</ele>
        <time>2021-09-11T08:31:44.000Z</time>
      </trkpt>
      <trkpt lat="40.99462" lon="-72.3331199">
        <ele>5.8</ele>
        <time>2021-09-11T08:31:45.000Z</time>
      </trkpt>
      <trkpt lat="40.99468" lon="-72.3333099">
        <ele>6.1</ele>
        <time>2021-09-11T08:31:47.000Z</time>
      </trkpt>
      <trkpt lat="40.995" lon="-72.33446">
        <ele>9.7</ele>
        <time>2021-09-11T08:31:57.000Z</time>
      </trkpt>
      <trkpt lat="40.99526" lon="-72.3348599">
        <ele>8.9</ele>
        <time>2021-09-11T08:32:01.000Z</time>
      </trkpt>
      <trkpt lat="40.99545" lon="-72.33517">
        <ele>9.1</ele>
        <time>2021-09-11T08:32:04.000Z</time>
      </trkpt>
      <trkpt lat="40.99553" lon="-72.3353799">
        <ele>9.2</ele>
        <time>2021-09-11T08:32:06.000Z</time>
      </trkpt>
      <trkpt lat="40.9955799" lon="-72.3355599">
        <ele>9.5</ele>
        <time>2021-09-11T08:32:08.000Z</time>
      </trkpt>
      <trkpt lat="40.99563" lon="-72.33584">
        <ele>10</ele>
        <time>2021-09-11T08:32:10.000Z</time>
      </trkpt>
      <trkpt lat="40.99566" lon="-72.33604">
        <ele>11.8</ele>
        <time>2021-09-11T08:32:12.000Z</time>
      </trkpt>
      <trkpt lat="40.99568" lon="-72.33618">
        <ele>12.1</ele>
        <time>2021-09-11T08:32:13.000Z</time>
      </trkpt>
      <trkpt lat="40.99572" lon="-72.3366999">
        <ele>12.9</ele>
        <time>2021-09-11T08:32:17.000Z</time>
      </trkpt>
      <trkpt lat="40.99572" lon="-72.3368699">
        <ele>13</ele>
        <time>2021-09-11T08:32:18.000Z</time>
      </trkpt>
      <trkpt lat="40.9957" lon="-72.33785">
        <ele>11.2</ele>
        <time>2021-09-11T08:32:26.000Z</time>
      </trkpt>
      <trkpt lat="40.99573" lon="-72.3383099">
        <ele>9.4</ele>
        <time>2021-09-11T08:32:30.000Z</time>
      </trkpt>
      <trkpt lat="40.99581" lon="-72.3390299">
        <ele>7.6</ele>
        <time>2021-09-11T08:32:36.000Z</time>
      </trkpt>
      <trkpt lat="40.9958699" lon="-72.33942">
        <ele>7.5</ele>
        <time>2021-09-11T08:32:39.000Z</time>
      </trkpt>
      <trkpt lat="40.99594" lon="-72.33982">
        <ele>7.1</ele>
        <time>2021-09-11T08:32:42.000Z</time>
      </trkpt>
      <trkpt lat="40.99594" lon="-72.33999">
        <ele>7</ele>
        <time>2021-09-11T08:32:43.000Z</time>
      </trkpt>
      <trkpt lat="40.9958699" lon="-72.34024">
        <ele>7.3</ele>
        <time>2021-09-11T08:32:45.000Z</time>
      </trkpt>
      <trkpt lat="40.99572" lon="-72.34078">
        <ele>7.9</ele>
        <time>2021-09-11T08:32:50.000Z</time>
      </trkpt>
      <trkpt lat="40.99562" lon="-72.34098">
        <ele>8.2</ele>
        <time>2021-09-11T08:32:52.000Z</time>
      </trkpt>
      <trkpt lat="40.99547" lon="-72.34162">
        <ele>9.1</ele>
        <time>2021-09-11T08:32:58.000Z</time>
      </trkpt>
      <trkpt lat="40.99528" lon="-72.34228">
        <ele>8.8</ele>
        <time>2021-09-11T08:33:04.000Z</time>
      </trkpt>
      <trkpt lat="40.99522" lon="-72.3424499">
        <ele>8.2</ele>
        <time>2021-09-11T08:33:06.000Z</time>
      </trkpt>
      <trkpt lat="40.995" lon="-72.34307">
        <ele>7.7</ele>
        <time>2021-09-11T08:33:12.000Z</time>
      </trkpt>
      <trkpt lat="40.99494" lon="-72.34323">
        <ele>7.9</ele>
        <time>2021-09-11T08:33:13.000Z</time>
      </trkpt>
      <trkpt lat="40.99469" lon="-72.3439099">
        <ele>9</ele>
        <time>2021-09-11T08:33:19.000Z</time>
      </trkpt>
      <trkpt lat="40.99466" lon="-72.3439798">
        <ele>9.2</ele>
        <time>2021-09-11T08:33:20.000Z</time>
      </trkpt>
      <trkpt lat="40.99431" lon="-72.34486">
        <ele>10.2</ele>
        <time>2021-09-11T08:33:28.000Z</time>
      </trkpt>
      <trkpt lat="40.99382" lon="-72.34626">
        <ele>7.6</ele>
        <time>2021-09-11T08:33:41.000Z</time>
      </trkpt>
      <trkpt lat="40.99353" lon="-72.3473599">
        <ele>5</ele>
        <time>2021-09-11T08:33:51.000Z</time>
      </trkpt>
      <trkpt lat="40.9934299" lon="-72.3477599">
        <ele>4.8</ele>
        <time>2021-09-11T08:33:55.000Z</time>
      </trkpt>
      <trkpt lat="40.99336" lon="-72.34812">
        <ele>4.4</ele>
        <time>2021-09-11T08:33:58.000Z</time>
      </trkpt>
      <trkpt lat="40.99337" lon="-72.3484">
        <ele>3</ele>
        <time>2021-09-11T08:34:00.000Z</time>
      </trkpt>
      <trkpt lat="40.99338" lon="-72.34878">
        <ele>2.1</ele>
        <time>2021-09-11T08:34:03.000Z</time>
      </trkpt>
      <trkpt lat="40.9934299" lon="-72.34906">
        <ele>1.7</ele>
        <time>2021-09-11T08:34:05.000Z</time>
      </trkpt>
      <trkpt lat="40.9934299" lon="-72.34924">
        <ele>1.4</ele>
        <time>2021-09-11T08:34:07.000Z</time>
      </trkpt>
      <trkpt lat="40.99342" lon="-72.3493699">
        <ele>1.2</ele>
        <time>2021-09-11T08:34:08.000Z</time>
      </trkpt>
      <trkpt lat="40.9934" lon="-72.3495">
        <ele>1</ele>
        <time>2021-09-11T08:34:09.000Z</time>
      </trkpt>
      <trkpt lat="40.99335" lon="-72.34969">
        <ele>1.6</ele>
        <time>2021-09-11T08:34:11.000Z</time>
      </trkpt>
      <trkpt lat="40.9933" lon="-72.3498099">
        <ele>2</ele>
        <time>2021-09-11T08:34:12.000Z</time>
      </trkpt>
      <trkpt lat="40.99324" lon="-72.34996">
        <ele>2.4</ele>
        <time>2021-09-11T08:34:13.000Z</time>
      </trkpt>
      <trkpt lat="40.9931399" lon="-72.3501">
        <ele>3.1</ele>
        <time>2021-09-11T08:34:15.000Z</time>
      </trkpt>
      <trkpt lat="40.99289" lon="-72.3503999">
        <ele>5</ele>
        <time>2021-09-11T08:34:19.000Z</time>
      </trkpt>
      <trkpt lat="40.99239" lon="-72.3511899">
        <ele>9.3</ele>
        <time>2021-09-11T08:34:28.000Z</time>
      </trkpt>
      <trkpt lat="40.99226" lon="-72.3514998">
        <ele>10.4</ele>
        <time>2021-09-11T08:34:31.000Z</time>
      </trkpt>
      <trkpt lat="40.99116" lon="-72.3537499">
        <ele>12.8</ele>
        <time>2021-09-11T08:34:54.000Z</time>
      </trkpt>
      <trkpt lat="40.99102" lon="-72.3540199">
        <ele>12.9</ele>
        <time>2021-09-11T08:34:57.000Z</time>
      </trkpt>
      <trkpt lat="40.9904" lon="-72.3552799">
        <ele>13</ele>
        <time>2021-09-11T08:35:10.000Z</time>
      </trkpt>
      <trkpt lat="40.9901399" lon="-72.35591">
        <ele>13.9</ele>
        <time>2021-09-11T08:35:16.000Z</time>
      </trkpt>
      <trkpt lat="40.98991" lon="-72.3565799">
        <ele>12.7</ele>
        <time>2021-09-11T08:35:22.000Z</time>
      </trkpt>
      <trkpt lat="40.98964" lon="-72.3573599">
        <ele>12.5</ele>
        <time>2021-09-11T08:35:29.000Z</time>
      </trkpt>
      <trkpt lat="40.98961" lon="-72.35748">
        <ele>12.8</ele>
        <time>2021-09-11T08:35:30.000Z</time>
      </trkpt>
      <trkpt lat="40.98934" lon="-72.3584099">
        <ele>12.7</ele>
        <time>2021-09-11T08:35:38.000Z</time>
      </trkpt>
      <trkpt lat="40.98918" lon="-72.35946">
        <ele>13.8</ele>
        <time>2021-09-11T08:35:47.000Z</time>
      </trkpt>
      <trkpt lat="40.98893" lon="-72.36129">
        <ele>12.7</ele>
        <time>2021-09-11T08:36:03.000Z</time>
      </trkpt>
      <trkpt lat="40.98892" lon="-72.36171">
        <ele>12.4</ele>
        <time>2021-09-11T08:36:07.000Z</time>
      </trkpt>
      <trkpt lat="40.9888199" lon="-72.36234">
        <ele>12.3</ele>
        <time>2021-09-11T08:36:12.000Z</time>
      </trkpt>
      <trkpt lat="40.98844" lon="-72.36371">
        <ele>10</ele>
        <time>2021-09-11T08:36:24.000Z</time>
      </trkpt>
      <trkpt lat="40.98828" lon="-72.36436">
        <ele>7.3</ele>
        <time>2021-09-11T08:36:30.000Z</time>
      </trkpt>
      <trkpt lat="40.98823" lon="-72.3646">
        <ele>7</ele>
        <time>2021-09-11T08:36:32.000Z</time>
      </trkpt>
      <trkpt lat="40.98813" lon="-72.3649399">
        <ele>6.9</ele>
        <time>2021-09-11T08:36:35.000Z</time>
      </trkpt>
      <trkpt lat="40.98805" lon="-72.36518">
        <ele>7.8</ele>
        <time>2021-09-11T08:36:37.000Z</time>
      </trkpt>
      <trkpt lat="40.98797" lon="-72.36535">
        <ele>7.9</ele>
        <time>2021-09-11T08:36:39.000Z</time>
      </trkpt>
      <trkpt lat="40.9876" lon="-72.3663399">
        <ele>6.7</ele>
        <time>2021-09-11T08:36:48.000Z</time>
      </trkpt>
      <trkpt lat="40.98745" lon="-72.3667699">
        <ele>7.1</ele>
        <time>2021-09-11T08:36:52.000Z</time>
      </trkpt>
      <trkpt lat="40.98727" lon="-72.3672598">
        <ele>7.3</ele>
        <time>2021-09-11T08:36:57.000Z</time>
      </trkpt>
      <trkpt lat="40.98661" lon="-72.36919">
        <ele>9.4</ele>
        <time>2021-09-11T08:37:15.000Z</time>
      </trkpt>
      <trkpt lat="40.98625" lon="-72.37025">
        <ele>12.8</ele>
        <time>2021-09-11T08:37:25.000Z</time>
      </trkpt>
      <trkpt lat="40.98594" lon="-72.37112">
        <ele>13.5</ele>
        <time>2021-09-11T08:37:33.000Z</time>
      </trkpt>
      <trkpt lat="40.98556" lon="-72.37218">
        <ele>8.7</ele>
        <time>2021-09-11T08:37:43.000Z</time>
      </trkpt>
      <trkpt lat="40.98543" lon="-72.3725299">
        <ele>8.1</ele>
        <time>2021-09-11T08:37:46.000Z</time>
      </trkpt>
      <trkpt lat="40.98534" lon="-72.3727399">
        <ele>7.7</ele>
        <time>2021-09-11T08:37:48.000Z</time>
      </trkpt>
      <trkpt lat="40.98516" lon="-72.37302">
        <ele>7.3</ele>
        <time>2021-09-11T08:37:51.000Z</time>
      </trkpt>
      <trkpt lat="40.98501" lon="-72.37317">
        <ele>7.1</ele>
        <time>2021-09-11T08:37:53.000Z</time>
      </trkpt>
      <trkpt lat="40.98478" lon="-72.3733399">
        <ele>6.9</ele>
        <time>2021-09-11T08:37:56.000Z</time>
      </trkpt>
      <trkpt lat="40.98468" lon="-72.3733899">
        <ele>6.9</ele>
        <time>2021-09-11T08:37:57.000Z</time>
      </trkpt>
      <trkpt lat="40.98449" lon="-72.3734499">
        <ele>7.1</ele>
        <time>2021-09-11T08:37:59.000Z</time>
      </trkpt>
      <trkpt lat="40.9842" lon="-72.3735">
        <ele>6.8</ele>
        <time>2021-09-11T08:38:02.000Z</time>
      </trkpt>
      <trkpt lat="40.98359" lon="-72.37337">
        <ele>7.7</ele>
        <time>2021-09-11T08:38:09.000Z</time>
      </trkpt>
      <trkpt lat="40.9831" lon="-72.37328">
        <ele>8.3</ele>
        <time>2021-09-11T08:38:15.000Z</time>
      </trkpt>
      <trkpt lat="40.98276" lon="-72.37331">
        <ele>8.2</ele>
        <time>2021-09-11T08:38:19.000Z</time>
      </trkpt>
      <trkpt lat="40.98255" lon="-72.3733599">
        <ele>8.4</ele>
        <time>2021-09-11T08:38:21.000Z</time>
      </trkpt>
      <trkpt lat="40.98248" lon="-72.37338">
        <ele>8.7</ele>
        <time>2021-09-11T08:38:22.000Z</time>
      </trkpt>
      <trkpt lat="40.98243" lon="-72.37332">
        <ele>9.1</ele>
        <time>2021-09-11T08:38:23.000Z</time>
      </trkpt>
      <trkpt lat="40.98239" lon="-72.37331">
        <ele>9.3</ele>
        <time>2021-09-11T08:38:23.000Z</time>
      </trkpt>
      <trkpt lat="40.98216" lon="-72.37331">
        <ele>10</ele>
        <time>2021-09-11T08:38:26.000Z</time>
      </trkpt>
      <trkpt lat="40.982132" lon="-72.3733127">
        <ele>10</ele>
        <time>2021-09-11T08:38:26.000Z</time>
      </trkpt>
      <trkpt lat="40.98187" lon="-72.3733399">
        <ele>11.3</ele>
        <time>2021-09-11T08:38:29.000Z</time>
      </trkpt>
      <trkpt lat="40.98164" lon="-72.3733399">
        <ele>11.9</ele>
        <time>2021-09-11T08:38:32.000Z</time>
      </trkpt>
      <trkpt lat="40.98128" lon="-72.37328">
        <ele>11.7</ele>
        <time>2021-09-11T08:38:36.000Z</time>
      </trkpt>
      <trkpt lat="40.98109" lon="-72.37323">
        <ele>11.6</ele>
        <time>2021-09-11T08:38:38.000Z</time>
      </trkpt>
      <trkpt lat="40.98077" lon="-72.3731599">
        <ele>11.6</ele>
        <time>2021-09-11T08:38:42.000Z</time>
      </trkpt>
      <trkpt lat="40.9803799" lon="-72.37305">
        <ele>11.5</ele>
        <time>2021-09-11T08:38:46.000Z</time>
      </trkpt>
      <trkpt lat="40.98003" lon="-72.3729099">
        <ele>11.8</ele>
        <time>2021-09-11T08:38:50.000Z</time>
      </trkpt>
      <trkpt lat="40.97966" lon="-72.3727099">
        <ele>12.8</ele>
        <time>2021-09-11T08:38:54.000Z</time>
      </trkpt>
      <trkpt lat="40.97887" lon="-72.37227">
        <ele>13.7</ele>
        <time>2021-09-11T08:39:04.000Z</time>
      </trkpt>
      <trkpt lat="40.9783" lon="-72.37187">
        <ele>13.9</ele>
        <time>2021-09-11T08:39:11.000Z</time>
      </trkpt>
      <trkpt lat="40.97762" lon="-72.3712898">
        <ele>14.7</ele>
        <time>2021-09-11T08:39:20.000Z</time>
      </trkpt>
      <trkpt lat="40.97734" lon="-72.3711">
        <ele>16.5</ele>
        <time>2021-09-11T08:39:24.000Z</time>
      </trkpt>
      <trkpt lat="40.97715" lon="-72.3710399">
        <ele>17</ele>
        <time>2021-09-11T08:39:26.000Z</time>
      </trkpt>
      <trkpt lat="40.97686" lon="-72.37101">
        <ele>16.9</ele>
        <time>2021-09-11T08:39:29.000Z</time>
      </trkpt>
      <trkpt lat="40.97645" lon="-72.37098">
        <ele>17.4</ele>
        <time>2021-09-11T08:39:34.000Z</time>
      </trkpt>
      <trkpt lat="40.97614" lon="-72.37087">
        <ele>18.1</ele>
        <time>2021-09-11T08:39:38.000Z</time>
      </trkpt>
      <trkpt lat="40.97579" lon="-72.3707299">
        <ele>19.8</ele>
        <time>2021-09-11T08:39:42.000Z</time>
      </trkpt>
      <trkpt lat="40.97552" lon="-72.37065">
        <ele>20.5</ele>
        <time>2021-09-11T08:39:45.000Z</time>
      </trkpt>
      <trkpt lat="40.97526" lon="-72.37061">
        <ele>20.5</ele>
        <time>2021-09-11T08:39:48.000Z</time>
      </trkpt>
      <trkpt lat="40.97507" lon="-72.3704599">
        <ele>20.5</ele>
        <time>2021-09-11T08:39:50.000Z</time>
      </trkpt>
      <trkpt lat="40.97493" lon="-72.3701899">
        <ele>20.5</ele>
        <time>2021-09-11T08:39:53.000Z</time>
      </trkpt>
      <trkpt lat="40.97481" lon="-72.36986">
        <ele>20.5</ele>
        <time>2021-09-11T08:39:56.000Z</time>
      </trkpt>
      <trkpt lat="40.97464" lon="-72.36948">
        <ele>20.5</ele>
        <time>2021-09-11T08:40:00.000Z</time>
      </trkpt>
      <trkpt lat="40.97458" lon="-72.36935">
        <ele>20.5</ele>
        <time>2021-09-11T08:40:01.000Z</time>
      </trkpt>
      <trkpt lat="40.97424" lon="-72.3687999">
        <ele>20.5</ele>
        <time>2021-09-11T08:40:07.000Z</time>
      </trkpt>
      <trkpt lat="40.97396" lon="-72.36823">
        <ele>20.6</ele>
        <time>2021-09-11T08:40:13.000Z</time>
      </trkpt>
      <trkpt lat="40.97384" lon="-72.3680399">
        <ele>21</ele>
        <time>2021-09-11T08:40:15.000Z</time>
      </trkpt>
      <trkpt lat="40.97383" lon="-72.36801">
        <ele>21</ele>
        <time>2021-09-11T08:40:15.000Z</time>
      </trkpt>
      <trkpt lat="40.97373" lon="-72.36791">
        <ele>21.2</ele>
        <time>2021-09-11T08:40:16.000Z</time>
      </trkpt>
      <trkpt lat="40.97358" lon="-72.36779">
        <ele>21.5</ele>
        <time>2021-09-11T08:40:18.000Z</time>
      </trkpt>
      <trkpt lat="40.97342" lon="-72.36766">
        <ele>22.4</ele>
        <time>2021-09-11T08:40:20.000Z</time>
      </trkpt>
      <trkpt lat="40.97319" lon="-72.3675">
        <ele>22.4</ele>
        <time>2021-09-11T08:40:23.000Z</time>
      </trkpt>
      <trkpt lat="40.9729" lon="-72.36748">
        <ele>22.3</ele>
        <time>2021-09-11T08:40:26.000Z</time>
      </trkpt>
      <trkpt lat="40.97146" lon="-72.3674398">
        <ele>28.2</ele>
        <time>2021-09-11T08:40:42.000Z</time>
      </trkpt>
      <trkpt lat="40.97098" lon="-72.36743">
        <ele>29.7</ele>
        <time>2021-09-11T08:40:47.000Z</time>
      </trkpt>
      <trkpt lat="40.97061" lon="-72.36732">
        <ele>31.4</ele>
        <time>2021-09-11T08:40:51.000Z</time>
      </trkpt>
      <trkpt lat="40.97005" lon="-72.36705">
        <ele>35.9</ele>
        <time>2021-09-11T08:40:58.000Z</time>
      </trkpt>
      <trkpt lat="40.96924" lon="-72.36691">
        <ele>37.6</ele>
        <time>2021-09-11T08:41:07.000Z</time>
      </trkpt>
      <trkpt lat="40.9684" lon="-72.36657">
        <ele>35.8</ele>
        <time>2021-09-11T08:41:17.000Z</time>
      </trkpt>
      <trkpt lat="40.96728" lon="-72.3664">
        <ele>42.4</ele>
        <time>2021-09-11T08:41:30.000Z</time>
      </trkpt>
      <trkpt lat="40.96669" lon="-72.3666499">
        <ele>43.1</ele>
        <time>2021-09-11T08:41:37.000Z</time>
      </trkpt>
      <trkpt lat="40.96641" lon="-72.36676">
        <ele>43.1</ele>
        <time>2021-09-11T08:41:40.000Z</time>
      </trkpt>
      <trkpt lat="40.96593" lon="-72.36696">
        <ele>43.7</ele>
        <time>2021-09-11T08:41:46.000Z</time>
      </trkpt>
      <trkpt lat="40.96582" lon="-72.36702">
        <ele>43.8</ele>
        <time>2021-09-11T08:41:47.000Z</time>
      </trkpt>
      <trkpt lat="40.96543" lon="-72.3674398">
        <ele>44.5</ele>
        <time>2021-09-11T08:41:53.000Z</time>
      </trkpt>
      <trkpt lat="40.96528" lon="-72.3676198">
        <ele>44.4</ele>
        <time>2021-09-11T08:41:55.000Z</time>
      </trkpt>
      <trkpt lat="40.96516" lon="-72.3677099">
        <ele>44</ele>
        <time>2021-09-11T08:41:57.000Z</time>
      </trkpt>
      <trkpt lat="40.9646" lon="-72.3678899">
        <ele>40.2</ele>
        <time>2021-09-11T08:42:03.000Z</time>
      </trkpt>
      <trkpt lat="40.964" lon="-72.36808">
        <ele>37.7</ele>
        <time>2021-09-11T08:42:10.000Z</time>
      </trkpt>
      <trkpt lat="40.96363" lon="-72.36815">
        <ele>37.6</ele>
        <time>2021-09-11T08:42:14.000Z</time>
      </trkpt>
      <trkpt lat="40.96336" lon="-72.3681599">
        <ele>39</ele>
        <time>2021-09-11T08:42:17.000Z</time>
      </trkpt>
      <trkpt lat="40.96273" lon="-72.3676">
        <ele>44.4</ele>
        <time>2021-09-11T08:42:25.000Z</time>
      </trkpt>
      <trkpt lat="40.96241" lon="-72.3673699">
        <ele>48.7</ele>
        <time>2021-09-11T08:42:29.000Z</time>
      </trkpt>
      <trkpt lat="40.96225" lon="-72.3673099">
        <ele>49.5</ele>
        <time>2021-09-11T08:42:31.000Z</time>
      </trkpt>
      <trkpt lat="40.96188" lon="-72.36732">
        <ele>49</ele>
        <time>2021-09-11T08:42:35.000Z</time>
      </trkpt>
      <trkpt lat="40.96165" lon="-72.36721">
        <ele>48.8</ele>
        <time>2021-09-11T08:42:38.000Z</time>
      </trkpt>
      <trkpt lat="40.9615" lon="-72.36702">
        <ele>49.9</ele>
        <time>2021-09-11T08:42:40.000Z</time>
      </trkpt>
      <trkpt lat="40.96144" lon="-72.3669199">
        <ele>50.8</ele>
        <time>2021-09-11T08:42:41.000Z</time>
      </trkpt>
      <trkpt lat="40.96115" lon="-72.3661398">
        <ele>55.3</ele>
        <time>2021-09-11T08:42:48.000Z</time>
      </trkpt>
      <trkpt lat="40.96091" lon="-72.3658699">
        <ele>56.7</ele>
        <time>2021-09-11T08:42:52.000Z</time>
      </trkpt>
      <trkpt lat="40.96064" lon="-72.3655499">
        <ele>57.7</ele>
        <time>2021-09-11T08:42:56.000Z</time>
      </trkpt>
      <trkpt lat="40.96057" lon="-72.3655699">
        <ele>57.5</ele>
        <time>2021-09-11T08:42:57.000Z</time>
      </trkpt>
      <trkpt lat="40.96047" lon="-72.36554">
        <ele>57.3</ele>
        <time>2021-09-11T08:42:58.000Z</time>
      </trkpt>
      <trkpt lat="40.9602099" lon="-72.36552">
        <ele>58.3</ele>
        <time>2021-09-11T08:43:01.000Z</time>
      </trkpt>
      <trkpt lat="40.95985" lon="-72.36558">
        <ele>59.7</ele>
        <time>2021-09-11T08:43:05.000Z</time>
      </trkpt>
      <trkpt lat="40.9594499" lon="-72.3656599">
        <ele>60.9</ele>
        <time>2021-09-11T08:43:10.000Z</time>
      </trkpt>
      <trkpt lat="40.9592" lon="-72.3657">
        <ele>61.8</ele>
        <time>2021-09-11T08:43:13.000Z</time>
      </trkpt>
      <trkpt lat="40.95893" lon="-72.3657">
        <ele>61.7</ele>
        <time>2021-09-11T08:43:16.000Z</time>
      </trkpt>
      <trkpt lat="40.95854" lon="-72.36562">
        <ele>61.3</ele>
        <time>2021-09-11T08:43:20.000Z</time>
      </trkpt>
      <trkpt lat="40.9583299" lon="-72.3656399">
        <ele>60.9</ele>
        <time>2021-09-11T08:43:22.000Z</time>
      </trkpt>
      <trkpt lat="40.95819" lon="-72.3656899">
        <ele>60.7</ele>
        <time>2021-09-11T08:43:24.000Z</time>
      </trkpt>
      <trkpt lat="40.9573899" lon="-72.36622">
        <ele>57.2</ele>
        <time>2021-09-11T08:43:34.000Z</time>
      </trkpt>
      <trkpt lat="40.9572" lon="-72.3663">
        <ele>56.4</ele>
        <time>2021-09-11T08:43:36.000Z</time>
      </trkpt>
      <trkpt lat="40.9569" lon="-72.3664">
        <ele>54.7</ele>
        <time>2021-09-11T08:43:39.000Z</time>
      </trkpt>
      <trkpt lat="40.95673" lon="-72.3664299">
        <ele>54.3</ele>
        <time>2021-09-11T08:43:41.000Z</time>
      </trkpt>
      <trkpt lat="40.95651" lon="-72.3663799">
        <ele>54.1</ele>
        <time>2021-09-11T08:43:43.000Z</time>
      </trkpt>
      <trkpt lat="40.95624" lon="-72.36628">
        <ele>53.8</ele>
        <time>2021-09-11T08:43:46.000Z</time>
      </trkpt>
      <trkpt lat="40.95596" lon="-72.36624">
        <ele>53.2</ele>
        <time>2021-09-11T08:43:49.000Z</time>
      </trkpt>
      <trkpt lat="40.95577" lon="-72.36624">
        <ele>53.1</ele>
        <time>2021-09-11T08:43:51.000Z</time>
      </trkpt>
      <trkpt lat="40.95554" lon="-72.36626">
        <ele>53.1</ele>
        <time>2021-09-11T08:43:54.000Z</time>
      </trkpt>
      <trkpt lat="40.95537" lon="-72.36628">
        <ele>53.1</ele>
        <time>2021-09-11T08:43:56.000Z</time>
      </trkpt>
      <trkpt lat="40.95475" lon="-72.3664299">
        <ele>53.2</ele>
        <time>2021-09-11T08:44:03.000Z</time>
      </trkpt>
      <trkpt lat="40.95404" lon="-72.36661">
        <ele>51.7</ele>
        <time>2021-09-11T08:44:11.000Z</time>
      </trkpt>
      <trkpt lat="40.95356" lon="-72.36671">
        <ele>50.6</ele>
        <time>2021-09-11T08:44:16.000Z</time>
      </trkpt>
      <trkpt lat="40.95334" lon="-72.36676">
        <ele>50.6</ele>
        <time>2021-09-11T08:44:18.000Z</time>
      </trkpt>
      <trkpt lat="40.95231" lon="-72.36703">
        <ele>49.5</ele>
        <time>2021-09-11T08:44:30.000Z</time>
      </trkpt>
      <trkpt lat="40.95183" lon="-72.36711">
        <ele>47.7</ele>
        <time>2021-09-11T08:44:35.000Z</time>
      </trkpt>
      <trkpt lat="40.95176" lon="-72.36707">
        <ele>47.6</ele>
        <time>2021-09-11T08:44:36.000Z</time>
      </trkpt>
      <trkpt lat="40.95163" lon="-72.3670399">
        <ele>47.5</ele>
        <time>2021-09-11T08:44:37.000Z</time>
      </trkpt>
      <trkpt lat="40.95134" lon="-72.367">
        <ele>47.5</ele>
        <time>2021-09-11T08:44:40.000Z</time>
      </trkpt>
      <trkpt lat="40.95073" lon="-72.3667199">
        <ele>45.2</ele>
        <time>2021-09-11T08:44:47.000Z</time>
      </trkpt>
      <trkpt lat="40.94997" lon="-72.36664">
        <ele>44.6</ele>
        <time>2021-09-11T08:44:55.000Z</time>
      </trkpt>
      <trkpt lat="40.94966" lon="-72.3666799">
        <ele>44.2</ele>
        <time>2021-09-11T08:44:58.000Z</time>
      </trkpt>
      <trkpt lat="40.94937" lon="-72.36673">
        <ele>44</ele>
        <time>2021-09-11T08:45:01.000Z</time>
      </trkpt>
      <trkpt lat="40.9488" lon="-72.3668099">
        <ele>43.5</ele>
        <time>2021-09-11T08:45:07.000Z</time>
      </trkpt>
      <trkpt lat="40.94806" lon="-72.36682">
        <ele>43.6</ele>
        <time>2021-09-11T08:45:15.000Z</time>
      </trkpt>
      <trkpt lat="40.9477199" lon="-72.3667399">
        <ele>43.4</ele>
        <time>2021-09-11T08:45:19.000Z</time>
      </trkpt>
      <trkpt lat="40.94694" lon="-72.36649">
        <ele>41.1</ele>
        <time>2021-09-11T08:45:28.000Z</time>
      </trkpt>
      <trkpt lat="40.94661" lon="-72.36653">
        <ele>40.3</ele>
        <time>2021-09-11T08:45:32.000Z</time>
      </trkpt>
      <trkpt lat="40.94614" lon="-72.3665599">
        <ele>39.8</ele>
        <time>2021-09-11T08:45:37.000Z</time>
      </trkpt>
      <trkpt lat="40.94594" lon="-72.36658">
        <ele>39.7</ele>
        <time>2021-09-11T08:45:39.000Z</time>
      </trkpt>
      <trkpt lat="40.94538" lon="-72.36671">
        <ele>38.5</ele>
        <time>2021-09-11T08:45:45.000Z</time>
      </trkpt>
      <trkpt lat="40.94469" lon="-72.36679">
        <ele>37.2</ele>
        <time>2021-09-11T08:45:53.000Z</time>
      </trkpt>
      <trkpt lat="40.94342" lon="-72.3668299">
        <ele>34.5</ele>
        <time>2021-09-11T08:46:07.000Z</time>
      </trkpt>
      <trkpt lat="40.9429" lon="-72.36687">
        <ele>33.5</ele>
        <time>2021-09-11T08:46:13.000Z</time>
      </trkpt>
      <trkpt lat="40.94208" lon="-72.36694">
        <ele>31</ele>
        <time>2021-09-11T08:46:22.000Z</time>
      </trkpt>
      <trkpt lat="40.93999" lon="-72.36652">
        <ele>23.5</ele>
        <time>2021-09-11T08:46:46.000Z</time>
      </trkpt>
      <trkpt lat="40.93997" lon="-72.36651">
        <ele>23.5</ele>
        <time>2021-09-11T08:46:46.000Z</time>
      </trkpt>
      <trkpt lat="40.93997" lon="-72.36651">
        <ele>23.5</ele>
        <time>2021-09-11T08:46:46.000Z</time>
      </trkpt>
      <trkpt lat="40.9399313" lon="-72.3666647">
        <ele>23.6</ele>
        <time>2021-09-11T08:46:47.000Z</time>
      </trkpt>
      <trkpt lat="40.93989" lon="-72.3668299">
        <ele>23.7</ele>
        <time>2021-09-11T08:46:48.000Z</time>
      </trkpt>
      <trkpt lat="40.9398399" lon="-72.367">
        <ele>23.9</ele>
        <time>2021-09-11T08:46:50.000Z</time>
      </trkpt>
      <trkpt lat="40.93972" lon="-72.3672598">
        <ele>24.5</ele>
        <time>2021-09-11T08:46:53.000Z</time>
      </trkpt>
      <trkpt lat="40.93956" lon="-72.3674899">
        <ele>25.2</ele>
        <time>2021-09-11T08:46:56.000Z</time>
      </trkpt>
      <trkpt lat="40.93938" lon="-72.3677099">
        <ele>25.9</ele>
        <time>2021-09-11T08:46:59.000Z</time>
      </trkpt>
      <trkpt lat="40.93918" lon="-72.36793">
        <ele>26.4</ele>
        <time>2021-09-11T08:47:02.000Z</time>
      </trkpt>
      <trkpt lat="40.93907" lon="-72.36801">
        <ele>26.1</ele>
        <time>2021-09-11T08:47:03.000Z</time>
      </trkpt>
      <trkpt lat="40.93891" lon="-72.36814">
        <ele>25.8</ele>
        <time>2021-09-11T08:47:05.000Z</time>
      </trkpt>
      <trkpt lat="40.93867" lon="-72.36828">
        <ele>25.2</ele>
        <time>2021-09-11T08:47:08.000Z</time>
      </trkpt>
      <trkpt lat="40.93831" lon="-72.36846">
        <ele>25</ele>
        <time>2021-09-11T08:47:12.000Z</time>
      </trkpt>
      <trkpt lat="40.93732" lon="-72.36901">
        <ele>24.1</ele>
        <time>2021-09-11T08:47:24.000Z</time>
      </trkpt>
      <trkpt lat="40.93726" lon="-72.36905">
        <ele>23.8</ele>
        <time>2021-09-11T08:47:25.000Z</time>
      </trkpt>
      <trkpt lat="40.93612" lon="-72.3696899">
        <ele>22.4</ele>
        <time>2021-09-11T08:47:39.000Z</time>
      </trkpt>
      <trkpt lat="40.93554" lon="-72.37004">
        <ele>22</ele>
        <time>2021-09-11T08:47:46.000Z</time>
      </trkpt>
      <trkpt lat="40.93466" lon="-72.37069">
        <ele>21</ele>
        <time>2021-09-11T08:47:57.000Z</time>
      </trkpt>
      <trkpt lat="40.93456" lon="-72.3707499">
        <ele>21</ele>
        <time>2021-09-11T08:47:58.000Z</time>
      </trkpt>
      <trkpt lat="40.93438" lon="-72.37083">
        <ele>20.9</ele>
        <time>2021-09-11T08:48:00.000Z</time>
      </trkpt>
      <trkpt lat="40.93412" lon="-72.3709">
        <ele>20.9</ele>
        <time>2021-09-11T08:48:03.000Z</time>
      </trkpt>
      <trkpt lat="40.93383" lon="-72.37103">
        <ele>20.8</ele>
        <time>2021-09-11T08:48:06.000Z</time>
      </trkpt>
      <trkpt lat="40.93379" lon="-72.37105">
        <ele>20.8</ele>
        <time>2021-09-11T08:48:06.000Z</time>
      </trkpt>
      <trkpt lat="40.9338088" lon="-72.3710678">
        <ele>20.8</ele>
        <time>2021-09-11T08:48:06.000Z</time>
      </trkpt>
      <trkpt lat="40.93399" lon="-72.37124">
        <ele>20.8</ele>
        <time>2021-09-11T08:48:08.000Z</time>
      </trkpt>
      <trkpt lat="40.9341" lon="-72.37139">
        <ele>20.9</ele>
        <time>2021-09-11T08:48:10.000Z</time>
      </trkpt>
      <trkpt lat="40.93415" lon="-72.37149">
        <ele>20.9</ele>
        <time>2021-09-11T08:48:11.000Z</time>
      </trkpt>
      <trkpt lat="40.93417" lon="-72.37161">
        <ele>21</ele>
        <time>2021-09-11T08:48:12.000Z</time>
      </trkpt>
      <trkpt lat="40.93417" lon="-72.37187">
        <ele>22.1</ele>
        <time>2021-09-11T08:48:14.000Z</time>
      </trkpt>
      <trkpt lat="40.93419" lon="-72.3720699">
        <ele>23.1</ele>
        <time>2021-09-11T08:48:16.000Z</time>
      </trkpt>
      <trkpt lat="40.93423" lon="-72.37234">
        <ele>23.5</ele>
        <time>2021-09-11T08:48:18.000Z</time>
      </trkpt>
      <trkpt lat="40.93431" lon="-72.3725799">
        <ele>23.9</ele>
        <time>2021-09-11T08:48:20.000Z</time>
      </trkpt>
      <trkpt lat="40.93439" lon="-72.3729399">
        <ele>24.9</ele>
        <time>2021-09-11T08:48:23.000Z</time>
      </trkpt>
      <trkpt lat="40.9344899" lon="-72.3732499">
        <ele>26.3</ele>
        <time>2021-09-11T08:48:26.000Z</time>
      </trkpt>
      <trkpt lat="40.9346" lon="-72.37346">
        <ele>26.7</ele>
        <time>2021-09-11T08:48:28.000Z</time>
      </trkpt>
      <trkpt lat="40.93475" lon="-72.37362">
        <ele>27.2</ele>
        <time>2021-09-11T08:48:30.000Z</time>
      </trkpt>
      <trkpt lat="40.93509" lon="-72.37391">
        <ele>28.4</ele>
        <time>2021-09-11T08:48:34.000Z</time>
      </trkpt>
      <trkpt lat="40.93542" lon="-72.3741699">
        <ele>29.5</ele>
        <time>2021-09-11T08:48:38.000Z</time>
      </trkpt>
      <trkpt lat="40.93542" lon="-72.37418">
        <ele>29.5</ele>
        <time>2021-09-11T08:48:38.000Z</time>
      </trkpt>
      <trkpt lat="40.93593" lon="-72.37461">
        <ele>32.4</ele>
        <time>2021-09-11T08:48:45.000Z</time>
      </trkpt>
      <trkpt lat="40.93623" lon="-72.37521">
        <ele>33.8</ele>
        <time>2021-09-11T08:48:51.000Z</time>
      </trkpt>
      <trkpt lat="40.93681" lon="-72.3765899">
        <ele>34.9</ele>
        <time>2021-09-11T08:49:04.000Z</time>
      </trkpt>
      <trkpt lat="40.93703" lon="-72.3770399">
        <ele>35.3</ele>
        <time>2021-09-11T08:49:09.000Z</time>
      </trkpt>
      <trkpt lat="40.9373" lon="-72.3778399">
        <ele>32.5</ele>
        <time>2021-09-11T08:49:16.000Z</time>
      </trkpt>
      <trkpt lat="40.93719" lon="-72.37792">
        <ele>32.4</ele>
        <time>2021-09-11T08:49:17.000Z</time>
      </trkpt>
      <trkpt lat="40.93663" lon="-72.37952">
        <ele>38.4</ele>
        <time>2021-09-11T08:49:32.000Z</time>
      </trkpt>
      <trkpt lat="40.9363699" lon="-72.38105">
        <ele>47.3</ele>
        <time>2021-09-11T08:49:45.000Z</time>
      </trkpt>
      <trkpt lat="40.93631" lon="-72.3815099">
        <ele>50.2</ele>
        <time>2021-09-11T08:49:49.000Z</time>
      </trkpt>
      <trkpt lat="40.93627" lon="-72.3818699">
        <ele>51.4</ele>
        <time>2021-09-11T08:49:52.000Z</time>
      </trkpt>
      <trkpt lat="40.93627" lon="-72.3820499">
        <ele>51.7</ele>
        <time>2021-09-11T08:49:54.000Z</time>
      </trkpt>
      <trkpt lat="40.93625" lon="-72.3827">
        <ele>52</ele>
        <time>2021-09-11T08:49:59.000Z</time>
      </trkpt>
      <trkpt lat="40.9362" lon="-72.38322">
        <ele>51.5</ele>
        <time>2021-09-11T08:50:03.000Z</time>
      </trkpt>
      <trkpt lat="40.93615" lon="-72.38351">
        <ele>51.5</ele>
        <time>2021-09-11T08:50:05.000Z</time>
      </trkpt>
      <trkpt lat="40.93605" lon="-72.38387">
        <ele>51.8</ele>
        <time>2021-09-11T08:50:08.000Z</time>
      </trkpt>
      <trkpt lat="40.936" lon="-72.3839799">
        <ele>51.4</ele>
        <time>2021-09-11T08:50:09.000Z</time>
      </trkpt>
      <trkpt lat="40.9358099" lon="-72.38441">
        <ele>51.8</ele>
        <time>2021-09-11T08:50:13.000Z</time>
      </trkpt>
      <trkpt lat="40.93567" lon="-72.38466">
        <ele>54.4</ele>
        <time>2021-09-11T08:50:16.000Z</time>
      </trkpt>
      <trkpt lat="40.93541" lon="-72.3850499">
        <ele>56.6</ele>
        <time>2021-09-11T08:50:20.000Z</time>
      </trkpt>
      <trkpt lat="40.93532" lon="-72.3852699">
        <ele>57.3</ele>
        <time>2021-09-11T08:50:22.000Z</time>
      </trkpt>
      <trkpt lat="40.93522" lon="-72.38556">
        <ele>59.3</ele>
        <time>2021-09-11T08:50:25.000Z</time>
      </trkpt>
      <trkpt lat="40.9351" lon="-72.38603">
        <ele>61.6</ele>
        <time>2021-09-11T08:50:29.000Z</time>
      </trkpt>
      <trkpt lat="40.93503" lon="-72.3863299">
        <ele>61.6</ele>
        <time>2021-09-11T08:50:32.000Z</time>
      </trkpt>
      <trkpt lat="40.935" lon="-72.38654">
        <ele>60.7</ele>
        <time>2021-09-11T08:50:34.000Z</time>
      </trkpt>
      <trkpt lat="40.93495" lon="-72.38691">
        <ele>59</ele>
        <time>2021-09-11T08:50:37.000Z</time>
      </trkpt>
      <trkpt lat="40.93504" lon="-72.3879499">
        <ele>55.6</ele>
        <time>2021-09-11T08:50:46.000Z</time>
      </trkpt>
      <trkpt lat="40.93512" lon="-72.38923">
        <ele>47.7</ele>
        <time>2021-09-11T08:50:57.000Z</time>
      </trkpt>
      <trkpt lat="40.9352" lon="-72.39026">
        <ele>38.9</ele>
        <time>2021-09-11T08:51:06.000Z</time>
      </trkpt>
      <trkpt lat="40.93549" lon="-72.39084">
        <ele>36.4</ele>
        <time>2021-09-11T08:51:12.000Z</time>
      </trkpt>
      <trkpt lat="40.93557" lon="-72.39115">
        <ele>33</ele>
        <time>2021-09-11T08:51:15.000Z</time>
      </trkpt>
      <trkpt lat="40.93555" lon="-72.3913999">
        <ele>31.6</ele>
        <time>2021-09-11T08:51:17.000Z</time>
      </trkpt>
      <trkpt lat="40.93544" lon="-72.3918899">
        <ele>29.7</ele>
        <time>2021-09-11T08:51:21.000Z</time>
      </trkpt>
      <trkpt lat="40.9353399" lon="-72.3926199">
        <ele>26.1</ele>
        <time>2021-09-11T08:51:27.000Z</time>
      </trkpt>
      <trkpt lat="40.93526" lon="-72.39316">
        <ele>25.6</ele>
        <time>2021-09-11T08:51:32.000Z</time>
      </trkpt>
      <trkpt lat="40.93527" lon="-72.3933999">
        <ele>24.6</ele>
        <time>2021-09-11T08:51:34.000Z</time>
      </trkpt>
      <trkpt lat="40.93525" lon="-72.3937399">
        <ele>23.3</ele>
        <time>2021-09-11T08:51:37.000Z</time>
      </trkpt>
      <trkpt lat="40.93522" lon="-72.39386">
        <ele>23.3</ele>
        <time>2021-09-11T08:51:38.000Z</time>
      </trkpt>
      <trkpt lat="40.93508" lon="-72.3943199">
        <ele>23.3</ele>
        <time>2021-09-11T08:51:42.000Z</time>
      </trkpt>
      <trkpt lat="40.93502" lon="-72.3944798">
        <ele>23.4</ele>
        <time>2021-09-11T08:51:43.000Z</time>
      </trkpt>
      <trkpt lat="40.93498" lon="-72.3946399">
        <ele>22.9</ele>
        <time>2021-09-11T08:51:44.000Z</time>
      </trkpt>
      <trkpt lat="40.93497" lon="-72.39476">
        <ele>22.6</ele>
        <time>2021-09-11T08:51:45.000Z</time>
      </trkpt>
      <trkpt lat="40.9349599" lon="-72.39506">
        <ele>22.7</ele>
        <time>2021-09-11T08:51:48.000Z</time>
      </trkpt>
      <trkpt lat="40.93499" lon="-72.39561">
        <ele>21.2</ele>
        <time>2021-09-11T08:51:53.000Z</time>
      </trkpt>
      <trkpt lat="40.93499" lon="-72.3957699">
        <ele>20.9</ele>
        <time>2021-09-11T08:51:54.000Z</time>
      </trkpt>
      <trkpt lat="40.93502" lon="-72.39607">
        <ele>20.9</ele>
        <time>2021-09-11T08:51:57.000Z</time>
      </trkpt>
      <trkpt lat="40.93507" lon="-72.3962799">
        <ele>20.6</ele>
        <time>2021-09-11T08:51:59.000Z</time>
      </trkpt>
      <trkpt lat="40.9351" lon="-72.3963999">
        <ele>20.4</ele>
        <time>2021-09-11T08:52:00.000Z</time>
      </trkpt>
      <trkpt lat="40.93531" lon="-72.3969">
        <ele>17.4</ele>
        <time>2021-09-11T08:52:05.000Z</time>
      </trkpt>
      <trkpt lat="40.93535" lon="-72.39708">
        <ele>16.3</ele>
        <time>2021-09-11T08:52:07.000Z</time>
      </trkpt>
      <trkpt lat="40.93538" lon="-72.3973399">
        <ele>15.5</ele>
        <time>2021-09-11T08:52:09.000Z</time>
      </trkpt>
      <trkpt lat="40.93539" lon="-72.39783">
        <ele>15.3</ele>
        <time>2021-09-11T08:52:13.000Z</time>
      </trkpt>
      <trkpt lat="40.93537" lon="-72.39836">
        <ele>15</ele>
        <time>2021-09-11T08:52:17.000Z</time>
      </trkpt>
      <trkpt lat="40.93535" lon="-72.39848">
        <ele>14.7</ele>
        <time>2021-09-11T08:52:18.000Z</time>
      </trkpt>
      <trkpt lat="40.93536" lon="-72.39848">
        <ele>14.6</ele>
        <time>2021-09-11T08:52:18.000Z</time>
      </trkpt>
      <trkpt lat="40.9353399" lon="-72.39866">
        <ele>14.2</ele>
        <time>2021-09-11T08:52:20.000Z</time>
      </trkpt>
      <trkpt lat="40.9353399" lon="-72.39866">
        <ele>14.2</ele>
        <time>2021-09-11T08:52:20.000Z</time>
      </trkpt>
      <trkpt lat="40.9353399" lon="-72.39866">
        <ele>14.2</ele>
        <time>2021-09-11T08:52:20.000Z</time>
      </trkpt>
      <trkpt lat="40.93516" lon="-72.3986898">
        <ele>14.6</ele>
        <time>2021-09-11T08:52:22.000Z</time>
      </trkpt>
      <trkpt lat="40.93451" lon="-72.39876">
        <ele>12.6</ele>
        <time>2021-09-11T08:52:29.000Z</time>
      </trkpt>
      <trkpt lat="40.93433" lon="-72.3988">
        <ele>13.1</ele>
        <time>2021-09-11T08:52:31.000Z</time>
      </trkpt>
      <trkpt lat="40.93413" lon="-72.39886">
        <ele>13.8</ele>
        <time>2021-09-11T08:52:33.000Z</time>
      </trkpt>
      <trkpt lat="40.93404" lon="-72.3989199">
        <ele>13.7</ele>
        <time>2021-09-11T08:52:34.000Z</time>
      </trkpt>
      <trkpt lat="40.93378" lon="-72.3990999">
        <ele>13.3</ele>
        <time>2021-09-11T08:52:37.000Z</time>
      </trkpt>
      <trkpt lat="40.93339" lon="-72.39935">
        <ele>13.5</ele>
        <time>2021-09-11T08:52:42.000Z</time>
      </trkpt>
      <trkpt lat="40.93324" lon="-72.3994">
        <ele>13.9</ele>
        <time>2021-09-11T08:52:44.000Z</time>
      </trkpt>
      <trkpt lat="40.9331" lon="-72.3994599">
        <ele>14.2</ele>
        <time>2021-09-11T08:52:46.000Z</time>
      </trkpt>
      <trkpt lat="40.93296" lon="-72.3994699">
        <ele>14.5</ele>
        <time>2021-09-11T08:52:48.000Z</time>
      </trkpt>
      <trkpt lat="40.93286" lon="-72.39948">
        <ele>14.5</ele>
        <time>2021-09-11T08:52:49.000Z</time>
      </trkpt>
      <trkpt lat="40.93271" lon="-72.3994599">
        <ele>14.9</ele>
        <time>2021-09-11T08:52:51.000Z</time>
      </trkpt>
      <trkpt lat="40.93254" lon="-72.39942">
        <ele>15.5</ele>
        <time>2021-09-11T08:52:53.000Z</time>
      </trkpt>
      <trkpt lat="40.9323" lon="-72.39939">
        <ele>16.4</ele>
        <time>2021-09-11T08:52:56.000Z</time>
      </trkpt>
      <trkpt lat="40.93217" lon="-72.3994">
        <ele>16.9</ele>
        <time>2021-09-11T08:52:57.000Z</time>
      </trkpt>
      <trkpt lat="40.93188" lon="-72.3994999">
        <ele>17.8</ele>
        <time>2021-09-11T08:53:00.000Z</time>
      </trkpt>
      <trkpt lat="40.93169" lon="-72.3996">
        <ele>18.5</ele>
        <time>2021-09-11T08:53:02.000Z</time>
      </trkpt>
      <trkpt lat="40.93145" lon="-72.39975">
        <ele>19.2</ele>
        <time>2021-09-11T08:53:05.000Z</time>
      </trkpt>
      <trkpt lat="40.93121" lon="-72.3999099">
        <ele>19.9</ele>
        <time>2021-09-11T08:53:08.000Z</time>
      </trkpt>
      <trkpt lat="40.93107" lon="-72.4000399">
        <ele>20.3</ele>
        <time>2021-09-11T08:53:10.000Z</time>
      </trkpt>
      <trkpt lat="40.93092" lon="-72.4002">
        <ele>20.6</ele>
        <time>2021-09-11T08:53:12.000Z</time>
      </trkpt>
      <trkpt lat="40.93081" lon="-72.4003599">
        <ele>20.7</ele>
        <time>2021-09-11T08:53:14.000Z</time>
      </trkpt>
      <trkpt lat="40.93069" lon="-72.40061">
        <ele>20.6</ele>
        <time>2021-09-11T08:53:16.000Z</time>
      </trkpt>
      <trkpt lat="40.93068" lon="-72.40062">
        <ele>20.6</ele>
        <time>2021-09-11T08:53:16.000Z</time>
      </trkpt>
      <trkpt lat="40.93048" lon="-72.4010799">
        <ele>19.8</ele>
        <time>2021-09-11T08:53:20.000Z</time>
      </trkpt>
      <trkpt lat="40.93035" lon="-72.4013899">
        <ele>19.2</ele>
        <time>2021-09-11T08:53:23.000Z</time>
      </trkpt>
      <trkpt lat="40.93018" lon="-72.40167">
        <ele>19.1</ele>
        <time>2021-09-11T08:53:26.000Z</time>
      </trkpt>
      <trkpt lat="40.93009" lon="-72.40181">
        <ele>19.3</ele>
        <time>2021-09-11T08:53:28.000Z</time>
      </trkpt>
      <trkpt lat="40.92949" lon="-72.4024699">
        <ele>18.5</ele>
        <time>2021-09-11T08:53:37.000Z</time>
      </trkpt>
      <trkpt lat="40.92925" lon="-72.40271">
        <ele>19.6</ele>
        <time>2021-09-11T08:53:40.000Z</time>
      </trkpt>
      <trkpt lat="40.92915" lon="-72.4027899">
        <ele>20.1</ele>
        <time>2021-09-11T08:53:41.000Z</time>
      </trkpt>
      <trkpt lat="40.92885" lon="-72.403">
        <ele>20.3</ele>
        <time>2021-09-11T08:53:45.000Z</time>
      </trkpt>
      <trkpt lat="40.92821" lon="-72.4033">
        <ele>19.6</ele>
        <time>2021-09-11T08:53:53.000Z</time>
      </trkpt>
      <trkpt lat="40.92803" lon="-72.40339">
        <ele>19.5</ele>
        <time>2021-09-11T08:53:55.000Z</time>
      </trkpt>
      <trkpt lat="40.9278199" lon="-72.40352">
        <ele>19.4</ele>
        <time>2021-09-11T08:53:58.000Z</time>
      </trkpt>
      <trkpt lat="40.9277" lon="-72.40359">
        <ele>19.2</ele>
        <time>2021-09-11T08:53:59.000Z</time>
      </trkpt>
      <trkpt lat="40.92734" lon="-72.4039199">
        <ele>19.2</ele>
        <time>2021-09-11T08:54:04.000Z</time>
      </trkpt>
      <trkpt lat="40.927" lon="-72.40427">
        <ele>16.9</ele>
        <time>2021-09-11T08:54:09.000Z</time>
      </trkpt>
      <trkpt lat="40.92686" lon="-72.40436">
        <ele>17.7</ele>
        <time>2021-09-11T08:54:11.000Z</time>
      </trkpt>
      <trkpt lat="40.92667" lon="-72.4044599">
        <ele>18</ele>
        <time>2021-09-11T08:54:13.000Z</time>
      </trkpt>
      <trkpt lat="40.92636" lon="-72.4045899">
        <ele>18</ele>
        <time>2021-09-11T08:54:17.000Z</time>
      </trkpt>
      <trkpt lat="40.92615" lon="-72.40465">
        <ele>18</ele>
        <time>2021-09-11T08:54:19.000Z</time>
      </trkpt>
      <trkpt lat="40.92597" lon="-72.40466">
        <ele>18</ele>
        <time>2021-09-11T08:54:21.000Z</time>
      </trkpt>
      <trkpt lat="40.92577" lon="-72.4046399">
        <ele>18.2</ele>
        <time>2021-09-11T08:54:23.000Z</time>
      </trkpt>
      <trkpt lat="40.92506" lon="-72.4043499">
        <ele>20.3</ele>
        <time>2021-09-11T08:54:31.000Z</time>
      </trkpt>
      <trkpt lat="40.92489" lon="-72.4042599">
        <ele>20</ele>
        <time>2021-09-11T08:54:33.000Z</time>
      </trkpt>
      <trkpt lat="40.92423" lon="-72.40393">
        <ele>20.2</ele>
        <time>2021-09-11T08:54:41.000Z</time>
      </trkpt>
      <trkpt lat="40.92385" lon="-72.4037399">
        <ele>19.4</ele>
        <time>2021-09-11T08:54:46.000Z</time>
      </trkpt>
      <trkpt lat="40.92333" lon="-72.4034999">
        <ele>19.5</ele>
        <time>2021-09-11T08:54:52.000Z</time>
      </trkpt>
      <trkpt lat="40.92308" lon="-72.4033499">
        <ele>21.1</ele>
        <time>2021-09-11T08:54:55.000Z</time>
      </trkpt>
      <trkpt lat="40.9229399" lon="-72.4032399">
        <ele>21.8</ele>
        <time>2021-09-11T08:54:57.000Z</time>
      </trkpt>
      <trkpt lat="40.9226699" lon="-72.40298">
        <ele>23.2</ele>
        <time>2021-09-11T08:55:01.000Z</time>
      </trkpt>
      <trkpt lat="40.92246" lon="-72.40284">
        <ele>21.8</ele>
        <time>2021-09-11T08:55:04.000Z</time>
      </trkpt>
      <trkpt lat="40.92228" lon="-72.4028099">
        <ele>20.6</ele>
        <time>2021-09-11T08:55:06.000Z</time>
      </trkpt>
      <trkpt lat="40.92201" lon="-72.40285">
        <ele>20.6</ele>
        <time>2021-09-11T08:55:09.000Z</time>
      </trkpt>
      <trkpt lat="40.92151" lon="-72.40295">
        <ele>20.7</ele>
        <time>2021-09-11T08:55:15.000Z</time>
      </trkpt>
      <trkpt lat="40.92116" lon="-72.40301">
        <ele>19.4</ele>
        <time>2021-09-11T08:55:19.000Z</time>
      </trkpt>
      <trkpt lat="40.92058" lon="-72.40318">
        <ele>21.2</ele>
        <time>2021-09-11T08:55:26.000Z</time>
      </trkpt>
      <trkpt lat="40.92007" lon="-72.4033299">
        <ele>22.8</ele>
        <time>2021-09-11T08:55:32.000Z</time>
      </trkpt>
      <trkpt lat="40.91971" lon="-72.4033299">
        <ele>23.5</ele>
        <time>2021-09-11T08:55:36.000Z</time>
      </trkpt>
      <trkpt lat="40.91957" lon="-72.4033">
        <ele>23.8</ele>
        <time>2021-09-11T08:55:38.000Z</time>
      </trkpt>
      <trkpt lat="40.9191999" lon="-72.40316">
        <ele>25.6</ele>
        <time>2021-09-11T08:55:42.000Z</time>
      </trkpt>
      <trkpt lat="40.9189" lon="-72.40301">
        <ele>27.9</ele>
        <time>2021-09-11T08:55:46.000Z</time>
      </trkpt>
      <trkpt lat="40.9186" lon="-72.40291">
        <ele>26.4</ele>
        <time>2021-09-11T08:55:49.000Z</time>
      </trkpt>
      <trkpt lat="40.91823" lon="-72.4028099">
        <ele>22.5</ele>
        <time>2021-09-11T08:55:53.000Z</time>
      </trkpt>
      <trkpt lat="40.91787" lon="-72.40275">
        <ele>21</ele>
        <time>2021-09-11T08:55:57.000Z</time>
      </trkpt>
      <trkpt lat="40.91768" lon="-72.40275">
        <ele>19.7</ele>
        <time>2021-09-11T08:55:59.000Z</time>
      </trkpt>
      <trkpt lat="40.9174999" lon="-72.40275">
        <ele>18.9</ele>
        <time>2021-09-11T08:56:01.000Z</time>
      </trkpt>
      <trkpt lat="40.91744" lon="-72.40276">
        <ele>18.8</ele>
        <time>2021-09-11T08:56:02.000Z</time>
      </trkpt>
      <trkpt lat="40.9173809" lon="-72.4027747">
        <ele>18.7</ele>
        <time>2021-09-11T08:56:03.000Z</time>
      </trkpt>
      <trkpt lat="40.91736" lon="-72.40278">
        <ele>18.7</ele>
        <time>2021-09-11T08:56:03.000Z</time>
      </trkpt>
      <trkpt lat="40.91736" lon="-72.40259">
        <ele>19.1</ele>
        <time>2021-09-11T08:56:05.000Z</time>
      </trkpt>
      <trkpt lat="40.91738" lon="-72.4025">
        <ele>19.3</ele>
        <time>2021-09-11T08:56:06.000Z</time>
      </trkpt>
      <trkpt lat="40.91743" lon="-72.40241">
        <ele>19.5</ele>
        <time>2021-09-11T08:56:07.000Z</time>
      </trkpt>
      <trkpt lat="40.91785" lon="-72.4019799">
        <ele>20.4</ele>
        <time>2021-09-11T08:56:13.000Z</time>
      </trkpt>
      <trkpt lat="40.91827" lon="-72.40149">
        <ele>21.6</ele>
        <time>2021-09-11T08:56:19.000Z</time>
      </trkpt>
      <trkpt lat="40.91847" lon="-72.40132">
        <ele>22.2</ele>
        <time>2021-09-11T08:56:22.000Z</time>
      </trkpt>
      <trkpt lat="40.91859" lon="-72.4011699">
        <ele>22.4</ele>
        <time>2021-09-11T08:56:24.000Z</time>
      </trkpt>
      <trkpt lat="40.91874" lon="-72.4010299">
        <ele>22.9</ele>
        <time>2021-09-11T08:56:26.000Z</time>
      </trkpt>
      <trkpt lat="40.91883" lon="-72.40088">
        <ele>23.3</ele>
        <time>2021-09-11T08:56:28.000Z</time>
      </trkpt>
      <trkpt lat="40.91885" lon="-72.40078">
        <ele>23.5</ele>
        <time>2021-09-11T08:56:29.000Z</time>
      </trkpt>
      <trkpt lat="40.91886" lon="-72.40064">
        <ele>23.9</ele>
        <time>2021-09-11T08:56:30.000Z</time>
      </trkpt>
      <trkpt lat="40.91881" lon="-72.4004999">
        <ele>24.4</ele>
        <time>2021-09-11T08:56:31.000Z</time>
      </trkpt>
      <trkpt lat="40.91874" lon="-72.4004099">
        <ele>24.9</ele>
        <time>2021-09-11T08:56:32.000Z</time>
      </trkpt>
      <trkpt lat="40.91855" lon="-72.40033">
        <ele>25.3</ele>
        <time>2021-09-11T08:56:34.000Z</time>
      </trkpt>
      <trkpt lat="40.91841" lon="-72.4003">
        <ele>25.3</ele>
        <time>2021-09-11T08:56:36.000Z</time>
      </trkpt>
      <trkpt lat="40.9182599" lon="-72.4001299">
        <ele>25.7</ele>
        <time>2021-09-11T08:56:38.000Z</time>
      </trkpt>
      <trkpt lat="40.9182" lon="-72.40002">
        <ele>25.9</ele>
        <time>2021-09-11T08:56:39.000Z</time>
      </trkpt>
      <trkpt lat="40.91818" lon="-72.3999">
        <ele>26.6</ele>
        <time>2021-09-11T08:56:40.000Z</time>
      </trkpt>
      <trkpt lat="40.91818" lon="-72.3994699">
        <ele>29.1</ele>
        <time>2021-09-11T08:56:44.000Z</time>
      </trkpt>
      <trkpt lat="40.91825" lon="-72.3986199">
        <ele>33</ele>
        <time>2021-09-11T08:56:51.000Z</time>
      </trkpt>
      <trkpt lat="40.91829" lon="-72.3982599">
        <ele>35.2</ele>
        <time>2021-09-11T08:56:54.000Z</time>
      </trkpt>
      <trkpt lat="40.91823" lon="-72.39767">
        <ele>39.6</ele>
        <time>2021-09-11T08:56:59.000Z</time>
      </trkpt>
      <trkpt lat="40.91822" lon="-72.3976">
        <ele>40.2</ele>
        <time>2021-09-11T08:57:00.000Z</time>
      </trkpt>
      <trkpt lat="40.91818" lon="-72.3972998">
        <ele>41.9</ele>
        <time>2021-09-11T08:57:03.000Z</time>
      </trkpt>
      <trkpt lat="40.91815" lon="-72.3970699">
        <ele>42.3</ele>
        <time>2021-09-11T08:57:05.000Z</time>
      </trkpt>
      <trkpt lat="40.91804" lon="-72.39697">
        <ele>41.9</ele>
        <time>2021-09-11T08:57:06.000Z</time>
      </trkpt>
      <trkpt lat="40.91793" lon="-72.3969">
        <ele>41.7</ele>
        <time>2021-09-11T08:57:07.000Z</time>
      </trkpt>
      <trkpt lat="40.9175899" lon="-72.3967599">
        <ele>41.8</ele>
        <time>2021-09-11T08:57:11.000Z</time>
      </trkpt>
      <trkpt lat="40.91728" lon="-72.3965799">
        <ele>41.7</ele>
        <time>2021-09-11T08:57:15.000Z</time>
      </trkpt>
      <trkpt lat="40.91691" lon="-72.39633">
        <ele>41.3</ele>
        <time>2021-09-11T08:57:20.000Z</time>
      </trkpt>
      <trkpt lat="40.9165" lon="-72.39605">
        <ele>38.5</ele>
        <time>2021-09-11T08:57:25.000Z</time>
      </trkpt>
      <trkpt lat="40.9162899" lon="-72.3959199">
        <ele>37.4</ele>
        <time>2021-09-11T08:57:28.000Z</time>
      </trkpt>
      <trkpt lat="40.91619" lon="-72.3958">
        <ele>37.3</ele>
        <time>2021-09-11T08:57:29.000Z</time>
      </trkpt>
      <trkpt lat="40.91599" lon="-72.39532">
        <ele>36.9</ele>
        <time>2021-09-11T08:57:34.000Z</time>
      </trkpt>
      <trkpt lat="40.9159" lon="-72.39515">
        <ele>35.9</ele>
        <time>2021-09-11T08:57:36.000Z</time>
      </trkpt>
      <trkpt lat="40.91579" lon="-72.39496">
        <ele>35.6</ele>
        <time>2021-09-11T08:57:38.000Z</time>
      </trkpt>
      <trkpt lat="40.9157" lon="-72.39477">
        <ele>35.4</ele>
        <time>2021-09-11T08:57:40.000Z</time>
      </trkpt>
      <trkpt lat="40.91556" lon="-72.3943898">
        <ele>35.8</ele>
        <time>2021-09-11T08:57:44.000Z</time>
      </trkpt>
      <trkpt lat="40.9154399" lon="-72.3940999">
        <ele>36.7</ele>
        <time>2021-09-11T08:57:47.000Z</time>
      </trkpt>
      <trkpt lat="40.91536" lon="-72.3939599">
        <ele>37.2</ele>
        <time>2021-09-11T08:57:48.000Z</time>
      </trkpt>
      <trkpt lat="40.91521" lon="-72.3937">
        <ele>37.7</ele>
        <time>2021-09-11T08:57:51.000Z</time>
      </trkpt>
      <trkpt lat="40.91492" lon="-72.3932399">
        <ele>38.8</ele>
        <time>2021-09-11T08:57:56.000Z</time>
      </trkpt>
      <trkpt lat="40.91477" lon="-72.39296">
        <ele>38.7</ele>
        <time>2021-09-11T08:57:59.000Z</time>
      </trkpt>
      <trkpt lat="40.91472" lon="-72.39281">
        <ele>38.5</ele>
        <time>2021-09-11T08:58:00.000Z</time>
      </trkpt>
      <trkpt lat="40.91469" lon="-72.3926999">
        <ele>38.2</ele>
        <time>2021-09-11T08:58:01.000Z</time>
      </trkpt>
      <trkpt lat="40.91467" lon="-72.39256">
        <ele>37.9</ele>
        <time>2021-09-11T08:58:02.000Z</time>
      </trkpt>
      <trkpt lat="40.91466" lon="-72.3925299">
        <ele>37.8</ele>
        <time>2021-09-11T08:58:02.000Z</time>
      </trkpt>
      <trkpt lat="40.91464" lon="-72.3923399">
        <ele>37.6</ele>
        <time>2021-09-11T08:58:04.000Z</time>
      </trkpt>
      <trkpt lat="40.91463" lon="-72.3921599">
        <ele>37</ele>
        <time>2021-09-11T08:58:06.000Z</time>
      </trkpt>
      <trkpt lat="40.91463" lon="-72.39202">
        <ele>36.8</ele>
        <time>2021-09-11T08:58:07.000Z</time>
      </trkpt>
      <trkpt lat="40.91458" lon="-72.3913499">
        <ele>37</ele>
        <time>2021-09-11T08:58:13.000Z</time>
      </trkpt>
      <trkpt lat="40.91454" lon="-72.39093">
        <ele>35</ele>
        <time>2021-09-11T08:58:17.000Z</time>
      </trkpt>
      <trkpt lat="40.91454" lon="-72.3906298">
        <ele>33.9</ele>
        <time>2021-09-11T08:58:20.000Z</time>
      </trkpt>
      <trkpt lat="40.9146" lon="-72.3901399">
        <ele>32.1</ele>
        <time>2021-09-11T08:58:24.000Z</time>
      </trkpt>
      <trkpt lat="40.91469" lon="-72.38976">
        <ele>32.7</ele>
        <time>2021-09-11T08:58:27.000Z</time>
      </trkpt>
      <trkpt lat="40.91492" lon="-72.38851">
        <ele>32.8</ele>
        <time>2021-09-11T08:58:38.000Z</time>
      </trkpt>
      <trkpt lat="40.91531" lon="-72.3859699">
        <ele>27.8</ele>
        <time>2021-09-11T08:59:00.000Z</time>
      </trkpt>
      <trkpt lat="40.91534" lon="-72.3858599">
        <ele>27.3</ele>
        <time>2021-09-11T08:59:01.000Z</time>
      </trkpt>
      <trkpt lat="40.91545" lon="-72.38553">
        <ele>26.5</ele>
        <time>2021-09-11T08:59:04.000Z</time>
      </trkpt>
      <trkpt lat="40.91593" lon="-72.3848">
        <ele>25.4</ele>
        <time>2021-09-11T08:59:12.000Z</time>
      </trkpt>
      <trkpt lat="40.91601" lon="-72.38466">
        <ele>24.7</ele>
        <time>2021-09-11T08:59:13.000Z</time>
      </trkpt>
      <trkpt lat="40.9162" lon="-72.38431">
        <ele>23.2</ele>
        <time>2021-09-11T08:59:17.000Z</time>
      </trkpt>
      <trkpt lat="40.91622" lon="-72.3842399">
        <ele>23</ele>
        <time>2021-09-11T08:59:18.000Z</time>
      </trkpt>
      <trkpt lat="40.91625" lon="-72.3840999">
        <ele>22.5</ele>
        <time>2021-09-11T08:59:19.000Z</time>
      </trkpt>
      <trkpt lat="40.91628" lon="-72.3830699">
        <ele>20.6</ele>
        <time>2021-09-11T08:59:28.000Z</time>
      </trkpt>
      <trkpt lat="40.91634" lon="-72.38278">
        <ele>19.8</ele>
        <time>2021-09-11T08:59:31.000Z</time>
      </trkpt>
      <trkpt lat="40.91646" lon="-72.38234">
        <ele>18.7</ele>
        <time>2021-09-11T08:59:35.000Z</time>
      </trkpt>
      <trkpt lat="40.91687" lon="-72.3813099">
        <ele>16.3</ele>
        <time>2021-09-11T08:59:45.000Z</time>
      </trkpt>
      <trkpt lat="40.91722" lon="-72.3805899">
        <ele>14.8</ele>
        <time>2021-09-11T08:59:52.000Z</time>
      </trkpt>
      <trkpt lat="40.9174099" lon="-72.3803199">
        <ele>14.1</ele>
        <time>2021-09-11T08:59:55.000Z</time>
      </trkpt>
      <trkpt lat="40.91771" lon="-72.38006">
        <ele>13.2</ele>
        <time>2021-09-11T08:59:59.000Z</time>
      </trkpt>
      <trkpt lat="40.91808" lon="-72.3798599">
        <ele>12.1</ele>
        <time>2021-09-11T09:00:03.000Z</time>
      </trkpt>
      <trkpt lat="40.9187299" lon="-72.37934">
        <ele>13.2</ele>
        <time>2021-09-11T09:00:11.000Z</time>
      </trkpt>
      <trkpt lat="40.91887" lon="-72.37931">
        <ele>13.3</ele>
        <time>2021-09-11T09:00:13.000Z</time>
      </trkpt>
      <trkpt lat="40.91903" lon="-72.37927">
        <ele>13.5</ele>
        <time>2021-09-11T09:00:15.000Z</time>
      </trkpt>
      <trkpt lat="40.91935" lon="-72.3792399">
        <ele>14.2</ele>
        <time>2021-09-11T09:00:19.000Z</time>
      </trkpt>
      <trkpt lat="40.9196" lon="-72.37925">
        <ele>15.5</ele>
        <time>2021-09-11T09:00:22.000Z</time>
      </trkpt>
      <trkpt lat="40.91987" lon="-72.37927">
        <ele>17.3</ele>
        <time>2021-09-11T09:00:25.000Z</time>
      </trkpt>
      <trkpt lat="40.92005" lon="-72.37927">
        <ele>18.3</ele>
        <time>2021-09-11T09:00:27.000Z</time>
      </trkpt>
      <trkpt lat="40.92015" lon="-72.3792598">
        <ele>19</ele>
        <time>2021-09-11T09:00:28.000Z</time>
      </trkpt>
      <trkpt lat="40.92018" lon="-72.37925">
        <ele>19.2</ele>
        <time>2021-09-11T09:00:28.000Z</time>
      </trkpt>
      <trkpt lat="40.92025" lon="-72.37921">
        <ele>19.6</ele>
        <time>2021-09-11T09:00:29.000Z</time>
      </trkpt>
      <trkpt lat="40.9203199" lon="-72.37913">
        <ele>19.8</ele>
        <time>2021-09-11T09:00:30.000Z</time>
      </trkpt>
      <trkpt lat="40.9204099" lon="-72.379">
        <ele>19.7</ele>
        <time>2021-09-11T09:00:31.000Z</time>
      </trkpt>
      <trkpt lat="40.92057" lon="-72.37862">
        <ele>19.3</ele>
        <time>2021-09-11T09:00:35.000Z</time>
      </trkpt>
      <trkpt lat="40.92063" lon="-72.3784299">
        <ele>19.6</ele>
        <time>2021-09-11T09:00:37.000Z</time>
      </trkpt>
      <trkpt lat="40.92083" lon="-72.37796">
        <ele>20.1</ele>
        <time>2021-09-11T09:00:42.000Z</time>
      </trkpt>
      <trkpt lat="40.92095" lon="-72.3776199">
        <ele>19.3</ele>
        <time>2021-09-11T09:00:45.000Z</time>
      </trkpt>
      <trkpt lat="40.92102" lon="-72.37732">
        <ele>18.4</ele>
        <time>2021-09-11T09:00:48.000Z</time>
      </trkpt>
      <trkpt lat="40.92108" lon="-72.3767">
        <ele>19</ele>
        <time>2021-09-11T09:00:53.000Z</time>
      </trkpt>
      <trkpt lat="40.92113" lon="-72.37656">
        <ele>19.3</ele>
        <time>2021-09-11T09:00:54.000Z</time>
      </trkpt>
      <trkpt lat="40.92115" lon="-72.37651">
        <ele>19.4</ele>
        <time>2021-09-11T09:00:54.000Z</time>
      </trkpt>
      <trkpt lat="40.92118" lon="-72.37647">
        <ele>19.5</ele>
        <time>2021-09-11T09:00:54.000Z</time>
      </trkpt>
      <trkpt lat="40.9212599" lon="-72.37637">
        <ele>20.2</ele>
        <time>2021-09-11T09:00:55.000Z</time>
      </trkpt>
      <trkpt lat="40.92136" lon="-72.3763">
        <ele>20.7</ele>
        <time>2021-09-11T09:00:56.000Z</time>
      </trkpt>
      <trkpt lat="40.92154" lon="-72.37625">
        <ele>21.6</ele>
        <time>2021-09-11T09:00:58.000Z</time>
      </trkpt>
      <trkpt lat="40.92211" lon="-72.37614">
        <ele>24</ele>
        <time>2021-09-11T09:01:04.000Z</time>
      </trkpt>
      <trkpt lat="40.92249" lon="-72.3759199">
        <ele>24.4</ele>
        <time>2021-09-11T09:01:09.000Z</time>
      </trkpt>
      <trkpt lat="40.92297" lon="-72.37563">
        <ele>22.7</ele>
        <time>2021-09-11T09:01:15.000Z</time>
      </trkpt>
      <trkpt lat="40.92327" lon="-72.37531">
        <ele>20.5</ele>
        <time>2021-09-11T09:01:19.000Z</time>
      </trkpt>
      <trkpt lat="40.92338" lon="-72.37515">
        <ele>20</ele>
        <time>2021-09-11T09:01:21.000Z</time>
      </trkpt>
      <trkpt lat="40.92348" lon="-72.3749199">
        <ele>19.9</ele>
        <time>2021-09-11T09:01:23.000Z</time>
      </trkpt>
      <trkpt lat="40.92354" lon="-72.37476">
        <ele>19.7</ele>
        <time>2021-09-11T09:01:25.000Z</time>
      </trkpt>
      <trkpt lat="40.92358" lon="-72.37457">
        <ele>19.3</ele>
        <time>2021-09-11T09:01:27.000Z</time>
      </trkpt>
      <trkpt lat="40.92359" lon="-72.3744">
        <ele>18.5</ele>
        <time>2021-09-11T09:01:28.000Z</time>
      </trkpt>
      <trkpt lat="40.92359" lon="-72.3742599">
        <ele>17.8</ele>
        <time>2021-09-11T09:01:29.000Z</time>
      </trkpt>
      <trkpt lat="40.92358" lon="-72.3737199">
        <ele>15.7</ele>
        <time>2021-09-11T09:01:34.000Z</time>
      </trkpt>
      <trkpt lat="40.92358" lon="-72.3735899">
        <ele>15.2</ele>
        <time>2021-09-11T09:01:35.000Z</time>
      </trkpt>
      <trkpt lat="40.92359" lon="-72.37346">
        <ele>14.7</ele>
        <time>2021-09-11T09:01:36.000Z</time>
      </trkpt>
      <trkpt lat="40.92363" lon="-72.3733599">
        <ele>14.5</ele>
        <time>2021-09-11T09:01:37.000Z</time>
      </trkpt>
      <trkpt lat="40.92368" lon="-72.37328">
        <ele>14.5</ele>
        <time>2021-09-11T09:01:38.000Z</time>
      </trkpt>
      <trkpt lat="40.92385" lon="-72.37314">
        <ele>14.5</ele>
        <time>2021-09-11T09:01:40.000Z</time>
      </trkpt>
      <trkpt lat="40.92386" lon="-72.37313">
        <ele>14.5</ele>
        <time>2021-09-11T09:01:40.000Z</time>
      </trkpt>
      <trkpt lat="40.92392" lon="-72.3730899">
        <ele>14.6</ele>
        <time>2021-09-11T09:01:41.000Z</time>
      </trkpt>
      <trkpt lat="40.92403" lon="-72.37302">
        <ele>14.8</ele>
        <time>2021-09-11T09:01:42.000Z</time>
      </trkpt>
      <trkpt lat="40.92403" lon="-72.37302">
        <ele>14.8</ele>
        <time>2021-09-11T09:01:42.000Z</time>
      </trkpt>
      <trkpt lat="40.92403" lon="-72.37302">
        <ele>14.8</ele>
        <time>2021-09-11T09:01:42.000Z</time>
      </trkpt>
      <trkpt lat="40.92389" lon="-72.3729999">
        <ele>14.9</ele>
        <time>2021-09-11T09:01:44.000Z</time>
      </trkpt>
      <trkpt lat="40.92371" lon="-72.3729799">
        <ele>14.7</ele>
        <time>2021-09-11T09:01:46.000Z</time>
      </trkpt>
      <trkpt lat="40.92352" lon="-72.37297">
        <ele>14.6</ele>
        <time>2021-09-11T09:01:48.000Z</time>
      </trkpt>
      <trkpt lat="40.92339" lon="-72.37295">
        <ele>14.5</ele>
        <time>2021-09-11T09:01:49.000Z</time>
      </trkpt>
      <trkpt lat="40.92318" lon="-72.3729099">
        <ele>14.5</ele>
        <time>2021-09-11T09:01:51.000Z</time>
      </trkpt>
      <trkpt lat="40.92282" lon="-72.37278">
        <ele>13.8</ele>
        <time>2021-09-11T09:01:55.000Z</time>
      </trkpt>
      <trkpt lat="40.92263" lon="-72.3727099">
        <ele>12.3</ele>
        <time>2021-09-11T09:01:57.000Z</time>
      </trkpt>
      <trkpt lat="40.92228" lon="-72.3726199">
        <ele>11.5</ele>
        <time>2021-09-11T09:02:01.000Z</time>
      </trkpt>
      <trkpt lat="40.92157" lon="-72.37245">
        <ele>11.6</ele>
        <time>2021-09-11T09:02:09.000Z</time>
      </trkpt>
      <trkpt lat="40.92137" lon="-72.3723999">
        <ele>11.6</ele>
        <time>2021-09-11T09:02:11.000Z</time>
      </trkpt>
      <trkpt lat="40.92119" lon="-72.3723499">
        <ele>11.7</ele>
        <time>2021-09-11T09:02:13.000Z</time>
      </trkpt>
      <trkpt lat="40.92102" lon="-72.37231">
        <ele>11.7</ele>
        <time>2021-09-11T09:02:15.000Z</time>
      </trkpt>
      <trkpt lat="40.92035" lon="-72.3722499">
        <ele>8.8</ele>
        <time>2021-09-11T09:02:22.000Z</time>
      </trkpt>
      <trkpt lat="40.9202299" lon="-72.3722599">
        <ele>8.6</ele>
        <time>2021-09-11T09:02:23.000Z</time>
      </trkpt>
      <trkpt lat="40.91956" lon="-72.3723999">
        <ele>8.3</ele>
        <time>2021-09-11T09:02:31.000Z</time>
      </trkpt>
      <trkpt lat="40.9191999" lon="-72.3724399">
        <ele>8.4</ele>
        <time>2021-09-11T09:02:35.000Z</time>
      </trkpt>
      <trkpt lat="40.9186" lon="-72.37242">
        <ele>8.4</ele>
        <time>2021-09-11T09:02:42.000Z</time>
      </trkpt>
      <trkpt lat="40.9182" lon="-72.37238">
        <ele>8.1</ele>
        <time>2021-09-11T09:02:46.000Z</time>
      </trkpt>
      <trkpt lat="40.91802" lon="-72.37232">
        <ele>7.5</ele>
        <time>2021-09-11T09:02:48.000Z</time>
      </trkpt>
      <trkpt lat="40.91782" lon="-72.3722499">
        <ele>6.8</ele>
        <time>2021-09-11T09:02:50.000Z</time>
      </trkpt>
      <trkpt lat="40.91744" lon="-72.37209">
        <ele>6.2</ele>
        <time>2021-09-11T09:02:54.000Z</time>
      </trkpt>
      <trkpt lat="40.91719" lon="-72.37203">
        <ele>5.9</ele>
        <time>2021-09-11T09:02:57.000Z</time>
      </trkpt>
      <trkpt lat="40.91681" lon="-72.3720699">
        <ele>5.8</ele>
        <time>2021-09-11T09:03:01.000Z</time>
      </trkpt>
      <trkpt lat="40.91664" lon="-72.3720999">
        <ele>5.8</ele>
        <time>2021-09-11T09:03:03.000Z</time>
      </trkpt>
      <trkpt lat="40.91655" lon="-72.37215">
        <ele>5.9</ele>
        <time>2021-09-11T09:03:04.000Z</time>
      </trkpt>
      <trkpt lat="40.91627" lon="-72.37236">
        <ele>6</ele>
        <time>2021-09-11T09:03:08.000Z</time>
      </trkpt>
      <trkpt lat="40.9159999" lon="-72.37259">
        <ele>5.9</ele>
        <time>2021-09-11T09:03:12.000Z</time>
      </trkpt>
      <trkpt lat="40.91585" lon="-72.37272">
        <ele>4.9</ele>
        <time>2021-09-11T09:03:14.000Z</time>
      </trkpt>
      <trkpt lat="40.91565" lon="-72.37295">
        <ele>3.2</ele>
        <time>2021-09-11T09:03:17.000Z</time>
      </trkpt>
      <trkpt lat="40.9154399" lon="-72.3732">
        <ele>3.4</ele>
        <time>2021-09-11T09:03:20.000Z</time>
      </trkpt>
      <trkpt lat="40.91532" lon="-72.3732999">
        <ele>3.6</ele>
        <time>2021-09-11T09:03:22.000Z</time>
      </trkpt>
      <trkpt lat="40.91518" lon="-72.37335">
        <ele>3.6</ele>
        <time>2021-09-11T09:03:24.000Z</time>
      </trkpt>
      <trkpt lat="40.91508" lon="-72.37338">
        <ele>3.6</ele>
        <time>2021-09-11T09:03:25.000Z</time>
      </trkpt>
      <trkpt lat="40.91496" lon="-72.37338">
        <ele>3.7</ele>
        <time>2021-09-11T09:03:26.000Z</time>
      </trkpt>
      <trkpt lat="40.91485" lon="-72.37337">
        <ele>3.9</ele>
        <time>2021-09-11T09:03:27.000Z</time>
      </trkpt>
      <trkpt lat="40.91471" lon="-72.37333">
        <ele>4</ele>
        <time>2021-09-11T09:03:29.000Z</time>
      </trkpt>
      <trkpt lat="40.91439" lon="-72.37323">
        <ele>3.8</ele>
        <time>2021-09-11T09:03:33.000Z</time>
      </trkpt>
      <trkpt lat="40.91417" lon="-72.37314">
        <ele>3.7</ele>
        <time>2021-09-11T09:03:36.000Z</time>
      </trkpt>
      <trkpt lat="40.91384" lon="-72.37306">
        <ele>3.4</ele>
        <time>2021-09-11T09:03:40.000Z</time>
      </trkpt>
      <trkpt lat="40.91268" lon="-72.3728499">
        <ele>2.8</ele>
        <time>2021-09-11T09:03:53.000Z</time>
      </trkpt>
      <trkpt lat="40.91252" lon="-72.3727999">
        <ele>2.9</ele>
        <time>2021-09-11T09:03:55.000Z</time>
      </trkpt>
      <trkpt lat="40.91239" lon="-72.3727599">
        <ele>2.8</ele>
        <time>2021-09-11T09:03:56.000Z</time>
      </trkpt>
      <trkpt lat="40.91228" lon="-72.37269">
        <ele>2.8</ele>
        <time>2021-09-11T09:03:57.000Z</time>
      </trkpt>
      <trkpt lat="40.91216" lon="-72.3726">
        <ele>2.8</ele>
        <time>2021-09-11T09:03:59.000Z</time>
      </trkpt>
      <trkpt lat="40.91201" lon="-72.3725">
        <ele>2.8</ele>
        <time>2021-09-11T09:04:01.000Z</time>
      </trkpt>
      <trkpt lat="40.91189" lon="-72.3723999">
        <ele>2.8</ele>
        <time>2021-09-11T09:04:03.000Z</time>
      </trkpt>
      <trkpt lat="40.91175" lon="-72.37232">
        <ele>2.8</ele>
        <time>2021-09-11T09:04:05.000Z</time>
      </trkpt>
      <trkpt lat="40.91155" lon="-72.3722">
        <ele>2.9</ele>
        <time>2021-09-11T09:04:07.000Z</time>
      </trkpt>
      <trkpt lat="40.91134" lon="-72.3720999">
        <ele>3.1</ele>
        <time>2021-09-11T09:04:09.000Z</time>
      </trkpt>
      <trkpt lat="40.91109" lon="-72.37205">
        <ele>3.2</ele>
        <time>2021-09-11T09:04:12.000Z</time>
      </trkpt>
      <trkpt lat="40.91082" lon="-72.3720699">
        <ele>3.3</ele>
        <time>2021-09-11T09:04:15.000Z</time>
      </trkpt>
      <trkpt lat="40.9105599" lon="-72.37214">
        <ele>3.4</ele>
        <time>2021-09-11T09:04:18.000Z</time>
      </trkpt>
      <trkpt lat="40.9099999" lon="-72.37229">
        <ele>4.5</ele>
        <time>2021-09-11T09:04:24.000Z</time>
      </trkpt>
      <trkpt lat="40.90912" lon="-72.3724599">
        <ele>7.3</ele>
        <time>2021-09-11T09:04:34.000Z</time>
      </trkpt>
      <trkpt lat="40.90912" lon="-72.37247">
        <ele>7.3</ele>
        <time>2021-09-11T09:04:34.000Z</time>
      </trkpt>
      <trkpt lat="40.90875" lon="-72.37254">
        <ele>9.1</ele>
        <time>2021-09-11T09:04:38.000Z</time>
      </trkpt>
      <trkpt lat="40.90875" lon="-72.37254">
        <ele>9.1</ele>
        <time>2021-09-11T09:04:38.000Z</time>
      </trkpt>
      <trkpt lat="40.90875" lon="-72.37254">
        <ele>9.1</ele>
        <time>2021-09-11T09:04:38.000Z</time>
      </trkpt>
      <trkpt lat="40.90871" lon="-72.3724399">
        <ele>9.1</ele>
        <time>2021-09-11T09:04:39.000Z</time>
      </trkpt>
      <trkpt lat="40.90869" lon="-72.37236">
        <ele>9.1</ele>
        <time>2021-09-11T09:04:40.000Z</time>
      </trkpt>
      <trkpt lat="40.90852" lon="-72.37148">
        <ele>10.2</ele>
        <time>2021-09-11T09:04:48.000Z</time>
      </trkpt>
      <trkpt lat="40.90833" lon="-72.37038">
        <ele>10.9</ele>
        <time>2021-09-11T09:04:57.000Z</time>
      </trkpt>
      <trkpt lat="40.90828" lon="-72.36988">
        <ele>10.9</ele>
        <time>2021-09-11T09:05:01.000Z</time>
      </trkpt>
      <trkpt lat="40.90823" lon="-72.36896">
        <ele>10.2</ele>
        <time>2021-09-11T09:05:09.000Z</time>
      </trkpt>
      <trkpt lat="40.90822" lon="-72.3687999">
        <ele>10.2</ele>
        <time>2021-09-11T09:05:10.000Z</time>
      </trkpt>
      <trkpt lat="40.9081199" lon="-72.36577">
        <ele>10.8</ele>
        <time>2021-09-11T09:05:35.000Z</time>
      </trkpt>
      <trkpt lat="40.90811" lon="-72.36514">
        <ele>10.6</ele>
        <time>2021-09-11T09:05:40.000Z</time>
      </trkpt>
      <trkpt lat="40.9081" lon="-72.36459">
        <ele>10.2</ele>
        <time>2021-09-11T09:05:45.000Z</time>
      </trkpt>
      <trkpt lat="40.90809" lon="-72.36432">
        <ele>10.1</ele>
        <time>2021-09-11T09:05:47.000Z</time>
      </trkpt>
      <trkpt lat="40.90809" lon="-72.36409">
        <ele>10.1</ele>
        <time>2021-09-11T09:05:49.000Z</time>
      </trkpt>
      <trkpt lat="40.90814" lon="-72.36374">
        <ele>8.9</ele>
        <time>2021-09-11T09:05:52.000Z</time>
      </trkpt>
      <trkpt lat="40.90828" lon="-72.3619499">
        <ele>3.2</ele>
        <time>2021-09-11T09:06:07.000Z</time>
      </trkpt>
      <trkpt lat="40.90832" lon="-72.36169">
        <ele>2.4</ele>
        <time>2021-09-11T09:06:09.000Z</time>
      </trkpt>
      <trkpt lat="40.90835" lon="-72.36148">
        <ele>2.3</ele>
        <time>2021-09-11T09:06:11.000Z</time>
      </trkpt>
      <trkpt lat="40.90844" lon="-72.36113">
        <ele>2.6</ele>
        <time>2021-09-11T09:06:14.000Z</time>
      </trkpt>
      <trkpt lat="40.90858" lon="-72.36071">
        <ele>2.6</ele>
        <time>2021-09-11T09:06:18.000Z</time>
      </trkpt>
      <trkpt lat="40.90878" lon="-72.36023">
        <ele>2.6</ele>
        <time>2021-09-11T09:06:23.000Z</time>
      </trkpt>
      <trkpt lat="40.9089" lon="-72.3600099">
        <ele>2.7</ele>
        <time>2021-09-11T09:06:25.000Z</time>
      </trkpt>
      <trkpt lat="40.90903" lon="-72.3598">
        <ele>2.6</ele>
        <time>2021-09-11T09:06:27.000Z</time>
      </trkpt>
      <trkpt lat="40.90913" lon="-72.35968">
        <ele>2.6</ele>
        <time>2021-09-11T09:06:29.000Z</time>
      </trkpt>
      <trkpt lat="40.90937" lon="-72.3593798">
        <ele>2.8</ele>
        <time>2021-09-11T09:06:33.000Z</time>
      </trkpt>
      <trkpt lat="40.90964" lon="-72.35905">
        <ele>3.4</ele>
        <time>2021-09-11T09:06:37.000Z</time>
      </trkpt>
      <trkpt lat="40.90964" lon="-72.35906">
        <ele>3.4</ele>
        <time>2021-09-11T09:06:37.000Z</time>
      </trkpt>
      <trkpt lat="40.90969" lon="-72.359">
        <ele>3.5</ele>
        <time>2021-09-11T09:06:38.000Z</time>
      </trkpt>
      <trkpt lat="40.90969" lon="-72.359">
        <ele>3.5</ele>
        <time>2021-09-11T09:06:38.000Z</time>
      </trkpt>
      <trkpt lat="40.90969" lon="-72.359">
        <ele>3.5</ele>
        <time>2021-09-11T09:06:38.000Z</time>
      </trkpt>
      <trkpt lat="40.90985" lon="-72.3590199">
        <ele>3.9</ele>
        <time>2021-09-11T09:06:40.000Z</time>
      </trkpt>
      <trkpt lat="40.90985" lon="-72.3590199">
        <ele>3.9</ele>
        <time>2021-09-11T09:06:40.000Z</time>
      </trkpt>
      <trkpt lat="40.90985" lon="-72.3590199">
        <ele>3.9</ele>
        <time>2021-09-11T09:06:40.000Z</time>
      </trkpt>
      <trkpt lat="40.90985" lon="-72.3590399">
        <ele>3.9</ele>
        <time>2021-09-11T09:06:40.000Z</time>
      </trkpt>
      <trkpt lat="40.90989" lon="-72.35926">
        <ele>3.8</ele>
        <time>2021-09-11T09:06:42.000Z</time>
      </trkpt>
      <trkpt lat="40.9099" lon="-72.35933">
        <ele>3.7</ele>
        <time>2021-09-11T09:06:43.000Z</time>
      </trkpt>
      <trkpt lat="40.90995" lon="-72.35953">
        <ele>3.6</ele>
        <time>2021-09-11T09:06:45.000Z</time>
      </trkpt>
      <trkpt lat="40.9100899" lon="-72.36018">
        <ele>3.2</ele>
        <time>2021-09-11T09:06:51.000Z</time>
      </trkpt>
      <trkpt lat="40.91017" lon="-72.36057">
        <ele>2.7</ele>
        <time>2021-09-11T09:06:54.000Z</time>
      </trkpt>
      <trkpt lat="40.91023" lon="-72.3609199">
        <ele>2.6</ele>
        <time>2021-09-11T09:06:57.000Z</time>
      </trkpt>
      <trkpt lat="40.91024" lon="-72.36111">
        <ele>2.4</ele>
        <time>2021-09-11T09:06:59.000Z</time>
      </trkpt>
      <trkpt lat="40.91022" lon="-72.36138">
        <ele>2.3</ele>
        <time>2021-09-11T09:07:01.000Z</time>
      </trkpt>
      <trkpt lat="40.91014" lon="-72.36166">
        <ele>2</ele>
        <time>2021-09-11T09:07:04.000Z</time>
      </trkpt>
      <trkpt lat="40.90996" lon="-72.36207">
        <ele>1.7</ele>
        <time>2021-09-11T09:07:08.000Z</time>
      </trkpt>
      <trkpt lat="40.90987" lon="-72.3623099">
        <ele>1.7</ele>
        <time>2021-09-11T09:07:10.000Z</time>
      </trkpt>
      <trkpt lat="40.90981" lon="-72.36263">
        <ele>1.7</ele>
        <time>2021-09-11T09:07:13.000Z</time>
      </trkpt>
      <trkpt lat="40.90979" lon="-72.3627799">
        <ele>1.8</ele>
        <time>2021-09-11T09:07:14.000Z</time>
      </trkpt>
      <trkpt lat="40.90979" lon="-72.3630299">
        <ele>1.9</ele>
        <time>2021-09-11T09:07:16.000Z</time>
      </trkpt>
      <trkpt lat="40.90982" lon="-72.36328">
        <ele>2</ele>
        <time>2021-09-11T09:07:18.000Z</time>
      </trkpt>
      <trkpt lat="40.90986" lon="-72.3634998">
        <ele>2.3</ele>
        <time>2021-09-11T09:07:20.000Z</time>
      </trkpt>
      <trkpt lat="40.90993" lon="-72.3637">
        <ele>2.4</ele>
        <time>2021-09-11T09:07:22.000Z</time>
      </trkpt>
      <trkpt lat="40.90999" lon="-72.36385">
        <ele>2.5</ele>
        <time>2021-09-11T09:07:23.000Z</time>
      </trkpt>
      <trkpt lat="40.91006" lon="-72.364">
        <ele>2.5</ele>
        <time>2021-09-11T09:07:24.000Z</time>
      </trkpt>
      <trkpt lat="40.9101" lon="-72.36408">
        <ele>2.6</ele>
        <time>2021-09-11T09:07:25.000Z</time>
      </trkpt>
      <trkpt lat="40.91016" lon="-72.36418">
        <ele>2.5</ele>
        <time>2021-09-11T09:07:26.000Z</time>
      </trkpt>
      <trkpt lat="40.9101799" lon="-72.3642199">
        <ele>2.5</ele>
        <time>2021-09-11T09:07:26.000Z</time>
      </trkpt>
      <trkpt lat="40.91035" lon="-72.3644699">
        <ele>2.5</ele>
        <time>2021-09-11T09:07:29.000Z</time>
      </trkpt>
      <trkpt lat="40.91035" lon="-72.36447">
        <ele>2.5</ele>
        <time>2021-09-11T09:07:29.000Z</time>
      </trkpt>
      <trkpt lat="40.91035" lon="-72.3644699">
        <ele>2.5</ele>
        <time>2021-09-11T09:07:29.000Z</time>
      </trkpt>
      <trkpt lat="40.91045" lon="-72.36454">
        <ele>2.4</ele>
        <time>2021-09-11T09:07:30.000Z</time>
      </trkpt>
      <trkpt lat="40.91063" lon="-72.3646">
        <ele>2.4</ele>
        <time>2021-09-11T09:07:32.000Z</time>
      </trkpt>
      <trkpt lat="40.91088" lon="-72.3646699">
        <ele>2.3</ele>
        <time>2021-09-11T09:07:35.000Z</time>
      </trkpt>
      <trkpt lat="40.91113" lon="-72.3646999">
        <ele>2.6</ele>
        <time>2021-09-11T09:07:38.000Z</time>
      </trkpt>
      <trkpt lat="40.91151" lon="-72.36471">
        <ele>3.1</ele>
        <time>2021-09-11T09:07:42.000Z</time>
      </trkpt>
      <trkpt lat="40.91238" lon="-72.36471">
        <ele>3</ele>
        <time>2021-09-11T09:07:52.000Z</time>
      </trkpt>
      <trkpt lat="40.91276" lon="-72.36475">
        <ele>3.1</ele>
        <time>2021-09-11T09:07:56.000Z</time>
      </trkpt>
      <trkpt lat="40.91368" lon="-72.36473">
        <ele>2.8</ele>
        <time>2021-09-11T09:08:06.000Z</time>
      </trkpt>
      <trkpt lat="40.91391" lon="-72.36473">
        <ele>2.8</ele>
        <time>2021-09-11T09:08:09.000Z</time>
      </trkpt>
      <trkpt lat="40.91416" lon="-72.36472">
        <ele>3</ele>
        <time>2021-09-11T09:08:12.000Z</time>
      </trkpt>
      <trkpt lat="40.91463" lon="-72.36472">
        <ele>3.2</ele>
        <time>2021-09-11T09:08:17.000Z</time>
      </trkpt>
      <trkpt lat="40.9149" lon="-72.3646999">
        <ele>3.2</ele>
        <time>2021-09-11T09:08:20.000Z</time>
      </trkpt>
      <trkpt lat="40.91517" lon="-72.36469">
        <ele>3.3</ele>
        <time>2021-09-11T09:08:23.000Z</time>
      </trkpt>
      <trkpt lat="40.91548" lon="-72.36468">
        <ele>3.6</ele>
        <time>2021-09-11T09:08:26.000Z</time>
      </trkpt>
      <trkpt lat="40.91578" lon="-72.3646699">
        <ele>4.4</ele>
        <time>2021-09-11T09:08:29.000Z</time>
      </trkpt>
      <trkpt lat="40.91596" lon="-72.36466">
        <ele>5.4</ele>
        <time>2021-09-11T09:08:31.000Z</time>
      </trkpt>
      <trkpt lat="40.91632" lon="-72.3646499">
        <ele>5.9</ele>
        <time>2021-09-11T09:08:35.000Z</time>
      </trkpt>
      <trkpt lat="40.9167599" lon="-72.36454">
        <ele>5.9</ele>
        <time>2021-09-11T09:08:40.000Z</time>
      </trkpt>
      <trkpt lat="40.9168" lon="-72.36454">
        <ele>5.9</ele>
        <time>2021-09-11T09:08:40.000Z</time>
      </trkpt>
      <trkpt lat="40.91747" lon="-72.36433">
        <ele>6.7</ele>
        <time>2021-09-11T09:08:48.000Z</time>
      </trkpt>
      <trkpt lat="40.9178799" lon="-72.3641899">
        <ele>8.1</ele>
        <time>2021-09-11T09:08:53.000Z</time>
      </trkpt>
      <trkpt lat="40.9181" lon="-72.36407">
        <ele>8.7</ele>
        <time>2021-09-11T09:08:56.000Z</time>
      </trkpt>
      <trkpt lat="40.91819" lon="-72.36398">
        <ele>9</ele>
        <time>2021-09-11T09:08:57.000Z</time>
      </trkpt>
      <trkpt lat="40.9183" lon="-72.36382">
        <ele>9.3</ele>
        <time>2021-09-11T09:08:59.000Z</time>
      </trkpt>
      <trkpt lat="40.91878" lon="-72.3631">
        <ele>10.7</ele>
        <time>2021-09-11T09:09:07.000Z</time>
      </trkpt>
      <trkpt lat="40.91897" lon="-72.36282">
        <ele>11.4</ele>
        <time>2021-09-11T09:09:10.000Z</time>
      </trkpt>
      <trkpt lat="40.91901" lon="-72.3627799">
        <ele>11.5</ele>
        <time>2021-09-11T09:09:11.000Z</time>
      </trkpt>
      <trkpt lat="40.9193" lon="-72.36247">
        <ele>12.1</ele>
        <time>2021-09-11T09:09:15.000Z</time>
      </trkpt>
      <trkpt lat="40.91992" lon="-72.36184">
        <ele>12.8</ele>
        <time>2021-09-11T09:09:24.000Z</time>
      </trkpt>
      <trkpt lat="40.92038" lon="-72.36139">
        <ele>13.4</ele>
        <time>2021-09-11T09:09:30.000Z</time>
      </trkpt>
      <trkpt lat="40.92078" lon="-72.3609599">
        <ele>13.3</ele>
        <time>2021-09-11T09:09:36.000Z</time>
      </trkpt>
      <trkpt lat="40.92089" lon="-72.36076">
        <ele>13</ele>
        <time>2021-09-11T09:09:38.000Z</time>
      </trkpt>
      <trkpt lat="40.92099" lon="-72.3605099">
        <ele>12.6</ele>
        <time>2021-09-11T09:09:40.000Z</time>
      </trkpt>
      <trkpt lat="40.92184" lon="-72.35834">
        <ele>11.2</ele>
        <time>2021-09-11T09:10:01.000Z</time>
      </trkpt>
      <trkpt lat="40.92205" lon="-72.35777">
        <ele>11.3</ele>
        <time>2021-09-11T09:10:06.000Z</time>
      </trkpt>
      <trkpt lat="40.92205" lon="-72.35777">
        <ele>11.3</ele>
        <time>2021-09-11T09:10:06.000Z</time>
      </trkpt>
      <trkpt lat="40.92205" lon="-72.35777">
        <ele>11.3</ele>
        <time>2021-09-11T09:10:06.000Z</time>
      </trkpt>
      <trkpt lat="40.9224" lon="-72.35789">
        <ele>11.5</ele>
        <time>2021-09-11T09:10:10.000Z</time>
      </trkpt>
      <trkpt lat="40.92284" lon="-72.35802">
        <ele>11.8</ele>
        <time>2021-09-11T09:10:15.000Z</time>
      </trkpt>
      <trkpt lat="40.92308" lon="-72.3580999">
        <ele>11.9</ele>
        <time>2021-09-11T09:10:18.000Z</time>
      </trkpt>
      <trkpt lat="40.92313" lon="-72.3581199">
        <ele>11.9</ele>
        <time>2021-09-11T09:10:19.000Z</time>
      </trkpt>
      <trkpt lat="40.9232299" lon="-72.35816">
        <ele>12</ele>
        <time>2021-09-11T09:10:20.000Z</time>
      </trkpt>
      <trkpt lat="40.9232299" lon="-72.35816">
        <ele>12</ele>
        <time>2021-09-11T09:10:20.000Z</time>
      </trkpt>
      <trkpt lat="40.9232299" lon="-72.35816">
        <ele>12</ele>
        <time>2021-09-11T09:10:20.000Z</time>
      </trkpt>
      <trkpt lat="40.92342" lon="-72.3580299">
        <ele>12.2</ele>
        <time>2021-09-11T09:10:22.000Z</time>
      </trkpt>
      <trkpt lat="40.92398" lon="-72.35753">
        <ele>12.9</ele>
        <time>2021-09-11T09:10:30.000Z</time>
      </trkpt>
      <trkpt lat="40.92428" lon="-72.3572499">
        <ele>13</ele>
        <time>2021-09-11T09:10:34.000Z</time>
      </trkpt>
      <trkpt lat="40.92498" lon="-72.35662">
        <ele>12.8</ele>
        <time>2021-09-11T09:10:43.000Z</time>
      </trkpt>
      <trkpt lat="40.9251999" lon="-72.3563999">
        <ele>11.9</ele>
        <time>2021-09-11T09:10:46.000Z</time>
      </trkpt>
      <trkpt lat="40.92539" lon="-72.35618">
        <ele>11.5</ele>
        <time>2021-09-11T09:10:49.000Z</time>
      </trkpt>
      <trkpt lat="40.92551" lon="-72.3559799">
        <ele>11.2</ele>
        <time>2021-09-11T09:10:51.000Z</time>
      </trkpt>
      <trkpt lat="40.92561" lon="-72.35574">
        <ele>10.6</ele>
        <time>2021-09-11T09:10:53.000Z</time>
      </trkpt>
      <trkpt lat="40.9257599" lon="-72.3554199">
        <ele>10.5</ele>
        <time>2021-09-11T09:10:56.000Z</time>
      </trkpt>
      <trkpt lat="40.92592" lon="-72.35513">
        <ele>10.9</ele>
        <time>2021-09-11T09:10:59.000Z</time>
      </trkpt>
      <trkpt lat="40.92612" lon="-72.3548099">
        <ele>11.5</ele>
        <time>2021-09-11T09:11:02.000Z</time>
      </trkpt>
      <trkpt lat="40.92634" lon="-72.3545">
        <ele>11.7</ele>
        <time>2021-09-11T09:11:06.000Z</time>
      </trkpt>
      <trkpt lat="40.92678" lon="-72.35387">
        <ele>13.1</ele>
        <time>2021-09-11T09:11:13.000Z</time>
      </trkpt>
      <trkpt lat="40.92738" lon="-72.35298">
        <ele>13.3</ele>
        <time>2021-09-11T09:11:23.000Z</time>
      </trkpt>
      <trkpt lat="40.92767" lon="-72.35262">
        <ele>12.8</ele>
        <time>2021-09-11T09:11:27.000Z</time>
      </trkpt>
      <trkpt lat="40.92812" lon="-72.35225">
        <ele>11.1</ele>
        <time>2021-09-11T09:11:33.000Z</time>
      </trkpt>
      <trkpt lat="40.92844" lon="-72.3520999">
        <ele>9.3</ele>
        <time>2021-09-11T09:11:37.000Z</time>
      </trkpt>
      <trkpt lat="40.92912" lon="-72.35188">
        <ele>10.7</ele>
        <time>2021-09-11T09:11:45.000Z</time>
      </trkpt>
      <trkpt lat="40.93005" lon="-72.35158">
        <ele>11.9</ele>
        <time>2021-09-11T09:11:56.000Z</time>
      </trkpt>
      <trkpt lat="40.93074" lon="-72.3513699">
        <ele>12.9</ele>
        <time>2021-09-11T09:12:04.000Z</time>
      </trkpt>
      <trkpt lat="40.9314899" lon="-72.35104">
        <ele>14.1</ele>
        <time>2021-09-11T09:12:13.000Z</time>
      </trkpt>
      <trkpt lat="40.93157" lon="-72.351">
        <ele>14.3</ele>
        <time>2021-09-11T09:12:14.000Z</time>
      </trkpt>
      <trkpt lat="40.9321" lon="-72.35073">
        <ele>15.1</ele>
        <time>2021-09-11T09:12:20.000Z</time>
      </trkpt>
      <trkpt lat="40.93229" lon="-72.3505799">
        <ele>15.2</ele>
        <time>2021-09-11T09:12:22.000Z</time>
      </trkpt>
      <trkpt lat="40.93241" lon="-72.35036">
        <ele>14.5</ele>
        <time>2021-09-11T09:12:24.000Z</time>
      </trkpt>
      <trkpt lat="40.93276" lon="-72.34926">
        <ele>10.7</ele>
        <time>2021-09-11T09:12:34.000Z</time>
      </trkpt>
      <trkpt lat="40.93296" lon="-72.34831">
        <ele>9.2</ele>
        <time>2021-09-11T09:12:42.000Z</time>
      </trkpt>
      <trkpt lat="40.93305" lon="-72.34769">
        <ele>9.7</ele>
        <time>2021-09-11T09:12:47.000Z</time>
      </trkpt>
      <trkpt lat="40.93312" lon="-72.3471">
        <ele>10.5</ele>
        <time>2021-09-11T09:12:52.000Z</time>
      </trkpt>
      <trkpt lat="40.93314" lon="-72.3468">
        <ele>10.6</ele>
        <time>2021-09-11T09:12:55.000Z</time>
      </trkpt>
      <trkpt lat="40.93316" lon="-72.3465899">
        <ele>10.8</ele>
        <time>2021-09-11T09:12:57.000Z</time>
      </trkpt>
      <trkpt lat="40.93318" lon="-72.3463699">
        <ele>10.8</ele>
        <time>2021-09-11T09:12:59.000Z</time>
      </trkpt>
      <trkpt lat="40.93321" lon="-72.34593">
        <ele>11.1</ele>
        <time>2021-09-11T09:13:03.000Z</time>
      </trkpt>
      <trkpt lat="40.93324" lon="-72.3455">
        <ele>11.5</ele>
        <time>2021-09-11T09:13:07.000Z</time>
      </trkpt>
      <trkpt lat="40.9333" lon="-72.3447499">
        <ele>11.8</ele>
        <time>2021-09-11T09:13:13.000Z</time>
      </trkpt>
      <trkpt lat="40.93336" lon="-72.34392">
        <ele>10.8</ele>
        <time>2021-09-11T09:13:20.000Z</time>
      </trkpt>
      <trkpt lat="40.9334599" lon="-72.34307">
        <ele>8.7</ele>
        <time>2021-09-11T09:13:27.000Z</time>
      </trkpt>
      <trkpt lat="40.93353" lon="-72.3428">
        <ele>8.2</ele>
        <time>2021-09-11T09:13:29.000Z</time>
      </trkpt>
      <trkpt lat="40.93366" lon="-72.34251">
        <ele>8</ele>
        <time>2021-09-11T09:13:32.000Z</time>
      </trkpt>
      <trkpt lat="40.9339" lon="-72.34217">
        <ele>7.9</ele>
        <time>2021-09-11T09:13:36.000Z</time>
      </trkpt>
      <trkpt lat="40.93427" lon="-72.3417799">
        <ele>8.1</ele>
        <time>2021-09-11T09:13:41.000Z</time>
      </trkpt>
      <trkpt lat="40.93463" lon="-72.3413999">
        <ele>8.6</ele>
        <time>2021-09-11T09:13:46.000Z</time>
      </trkpt>
      <trkpt lat="40.93493" lon="-72.3410299">
        <ele>9.4</ele>
        <time>2021-09-11T09:13:51.000Z</time>
      </trkpt>
      <trkpt lat="40.93518" lon="-72.3406499">
        <ele>10.4</ele>
        <time>2021-09-11T09:13:55.000Z</time>
      </trkpt>
      <trkpt lat="40.93528" lon="-72.3404699">
        <ele>10.5</ele>
        <time>2021-09-11T09:13:57.000Z</time>
      </trkpt>
      <trkpt lat="40.93531" lon="-72.34041">
        <ele>10.6</ele>
        <time>2021-09-11T09:13:58.000Z</time>
      </trkpt>
      <trkpt lat="40.9354" lon="-72.3401999">
        <ele>10.5</ele>
        <time>2021-09-11T09:14:00.000Z</time>
      </trkpt>
      <trkpt lat="40.93564" lon="-72.34005">
        <ele>10.6</ele>
        <time>2021-09-11T09:14:03.000Z</time>
      </trkpt>
      <trkpt lat="40.93583" lon="-72.33991">
        <ele>10.7</ele>
        <time>2021-09-11T09:14:05.000Z</time>
      </trkpt>
      <trkpt lat="40.93666" lon="-72.33919">
        <ele>12.1</ele>
        <time>2021-09-11T09:14:16.000Z</time>
      </trkpt>
      <trkpt lat="40.93863" lon="-72.3374">
        <ele>14</ele>
        <time>2021-09-11T09:14:43.000Z</time>
      </trkpt>
      <trkpt lat="40.93987" lon="-72.3368">
        <ele>14.4</ele>
        <time>2021-09-11T09:14:58.000Z</time>
      </trkpt>
      <trkpt lat="40.94056" lon="-72.3364599">
        <ele>15.3</ele>
        <time>2021-09-11T09:15:06.000Z</time>
      </trkpt>
      <trkpt lat="40.94086" lon="-72.33632">
        <ele>15.5</ele>
        <time>2021-09-11T09:15:10.000Z</time>
      </trkpt>
      <trkpt lat="40.94145" lon="-72.33591">
        <ele>16.4</ele>
        <time>2021-09-11T09:15:17.000Z</time>
      </trkpt>
      <trkpt lat="40.94191" lon="-72.33554">
        <ele>17.2</ele>
        <time>2021-09-11T09:15:23.000Z</time>
      </trkpt>
      <trkpt lat="40.94271" lon="-72.33483">
        <ele>18.2</ele>
        <time>2021-09-11T09:15:34.000Z</time>
      </trkpt>
      <trkpt lat="40.94334" lon="-72.3341399">
        <ele>16.8</ele>
        <time>2021-09-11T09:15:43.000Z</time>
      </trkpt>
      <trkpt lat="40.94399" lon="-72.33323">
        <ele>12.2</ele>
        <time>2021-09-11T09:15:54.000Z</time>
      </trkpt>
      <trkpt lat="40.94439" lon="-72.33257">
        <ele>14.7</ele>
        <time>2021-09-11T09:16:01.000Z</time>
      </trkpt>
      <trkpt lat="40.94469" lon="-72.3319798">
        <ele>15.9</ele>
        <time>2021-09-11T09:16:07.000Z</time>
      </trkpt>
      <trkpt lat="40.94511" lon="-72.3311699">
        <ele>12.8</ele>
        <time>2021-09-11T09:16:15.000Z</time>
      </trkpt>
      <trkpt lat="40.94526" lon="-72.33095">
        <ele>12.2</ele>
        <time>2021-09-11T09:16:17.000Z</time>
      </trkpt>
      <trkpt lat="40.94551" lon="-72.33068">
        <ele>12.5</ele>
        <time>2021-09-11T09:16:21.000Z</time>
      </trkpt>
      <trkpt lat="40.94574" lon="-72.33051">
        <ele>13.5</ele>
        <time>2021-09-11T09:16:24.000Z</time>
      </trkpt>
      <trkpt lat="40.94607" lon="-72.33037">
        <ele>15.1</ele>
        <time>2021-09-11T09:16:28.000Z</time>
      </trkpt>
      <trkpt lat="40.94743" lon="-72.32983">
        <ele>19.1</ele>
        <time>2021-09-11T09:16:44.000Z</time>
      </trkpt>
      <trkpt lat="40.94942" lon="-72.3289999">
        <ele>24.6</ele>
        <time>2021-09-11T09:17:07.000Z</time>
      </trkpt>
      <trkpt lat="40.94956" lon="-72.32895">
        <ele>24.9</ele>
        <time>2021-09-11T09:17:09.000Z</time>
      </trkpt>
      <trkpt lat="40.94958" lon="-72.3289399">
        <ele>25</ele>
        <time>2021-09-11T09:17:09.000Z</time>
      </trkpt>
      <trkpt lat="40.94964" lon="-72.32889">
        <ele>25.1</ele>
        <time>2021-09-11T09:17:10.000Z</time>
      </trkpt>
      <trkpt lat="40.94993" lon="-72.32874">
        <ele>25.8</ele>
        <time>2021-09-11T09:17:13.000Z</time>
      </trkpt>
      <trkpt lat="40.95002" lon="-72.3287">
        <ele>25.9</ele>
        <time>2021-09-11T09:17:14.000Z</time>
      </trkpt>
      <trkpt lat="40.95009" lon="-72.32862">
        <ele>26.1</ele>
        <time>2021-09-11T09:17:15.000Z</time>
      </trkpt>
      <trkpt lat="40.95009" lon="-72.32855">
        <ele>26.2</ele>
        <time>2021-09-11T09:17:16.000Z</time>
      </trkpt>
      <trkpt lat="40.9501" lon="-72.3284898">
        <ele>26.3</ele>
        <time>2021-09-11T09:17:17.000Z</time>
      </trkpt>
      <trkpt lat="40.9499799" lon="-72.3282699">
        <ele>26.4</ele>
        <time>2021-09-11T09:17:19.000Z</time>
      </trkpt>
      <trkpt lat="40.94997" lon="-72.32825">
        <ele>26.4</ele>
        <time>2021-09-11T09:17:19.000Z</time>
      </trkpt>
      <trkpt lat="40.94975" lon="-72.3279">
        <ele>26.6</ele>
        <time>2021-09-11T09:17:23.000Z</time>
      </trkpt>
      <trkpt lat="40.94972" lon="-72.3278199">
        <ele>26.7</ele>
        <time>2021-09-11T09:17:24.000Z</time>
      </trkpt>
      <trkpt lat="40.94939" lon="-72.3272999">
        <ele>26.7</ele>
        <time>2021-09-11T09:17:30.000Z</time>
      </trkpt>
      <trkpt lat="40.94894" lon="-72.3266199">
        <ele>26.3</ele>
        <time>2021-09-11T09:17:38.000Z</time>
      </trkpt>
      <trkpt lat="40.9489" lon="-72.32655">
        <ele>26.3</ele>
        <time>2021-09-11T09:17:39.000Z</time>
      </trkpt>
      <trkpt lat="40.94764" lon="-72.32454">
        <ele>23.3</ele>
        <time>2021-09-11T09:18:01.000Z</time>
      </trkpt>
      <trkpt lat="40.94719" lon="-72.32393">
        <ele>22.3</ele>
        <time>2021-09-11T09:18:08.000Z</time>
      </trkpt>
      <trkpt lat="40.94567" lon="-72.32198">
        <ele>20.9</ele>
        <time>2021-09-11T09:18:32.000Z</time>
      </trkpt>
      <trkpt lat="40.94559" lon="-72.32189">
        <ele>20.8</ele>
        <time>2021-09-11T09:18:33.000Z</time>
      </trkpt>
      <trkpt lat="40.94349" lon="-72.3191899">
        <ele>16.6</ele>
        <time>2021-09-11T09:19:06.000Z</time>
      </trkpt>
      <trkpt lat="40.94205" lon="-72.31735">
        <ele>17.1</ele>
        <time>2021-09-11T09:19:28.000Z</time>
      </trkpt>
      <trkpt lat="40.9413399" lon="-72.31646">
        <ele>16.9</ele>
        <time>2021-09-11T09:19:39.000Z</time>
      </trkpt>
      <trkpt lat="40.94124" lon="-72.31634">
        <ele>16.8</ele>
        <time>2021-09-11T09:19:40.000Z</time>
      </trkpt>
      <trkpt lat="40.94108" lon="-72.3161">
        <ele>16.7</ele>
        <time>2021-09-11T09:19:43.000Z</time>
      </trkpt>
      <trkpt lat="40.94086" lon="-72.31585">
        <ele>16.7</ele>
        <time>2021-09-11T09:19:46.000Z</time>
      </trkpt>
      <trkpt lat="40.94084" lon="-72.31583">
        <ele>16.7</ele>
        <time>2021-09-11T09:19:46.000Z</time>
      </trkpt>
      <trkpt lat="40.94066" lon="-72.3156">
        <ele>16.6</ele>
        <time>2021-09-11T09:19:49.000Z</time>
      </trkpt>
      <trkpt lat="40.94007" lon="-72.31481">
        <ele>16.1</ele>
        <time>2021-09-11T09:19:58.000Z</time>
      </trkpt>
      <trkpt lat="40.93998" lon="-72.3147">
        <ele>16</ele>
        <time>2021-09-11T09:19:59.000Z</time>
      </trkpt>
      <trkpt lat="40.93992" lon="-72.31459">
        <ele>15.9</ele>
        <time>2021-09-11T09:20:00.000Z</time>
      </trkpt>
      <trkpt lat="40.93979" lon="-72.31433">
        <ele>15.8</ele>
        <time>2021-09-11T09:20:03.000Z</time>
      </trkpt>
      <trkpt lat="40.9396" lon="-72.31388">
        <ele>15.4</ele>
        <time>2021-09-11T09:20:07.000Z</time>
      </trkpt>
      <trkpt lat="40.93887" lon="-72.3119199">
        <ele>11.8</ele>
        <time>2021-09-11T09:20:25.000Z</time>
      </trkpt>
      <trkpt lat="40.93882" lon="-72.3117898">
        <ele>11.8</ele>
        <time>2021-09-11T09:20:26.000Z</time>
      </trkpt>
      <trkpt lat="40.9388" lon="-72.31171">
        <ele>11.8</ele>
        <time>2021-09-11T09:20:27.000Z</time>
      </trkpt>
      <trkpt lat="40.93873" lon="-72.31153">
        <ele>11.8</ele>
        <time>2021-09-11T09:20:29.000Z</time>
      </trkpt>
      <trkpt lat="40.93871" lon="-72.31146">
        <ele>11.8</ele>
        <time>2021-09-11T09:20:30.000Z</time>
      </trkpt>
      <trkpt lat="40.93869" lon="-72.3113799">
        <ele>11.8</ele>
        <time>2021-09-11T09:20:31.000Z</time>
      </trkpt>
      <trkpt lat="40.93868" lon="-72.31132">
        <ele>11.8</ele>
        <time>2021-09-11T09:20:32.000Z</time>
      </trkpt>
      <trkpt lat="40.93868" lon="-72.3112499">
        <ele>11.8</ele>
        <time>2021-09-11T09:20:33.000Z</time>
      </trkpt>
      <trkpt lat="40.93867" lon="-72.31114">
        <ele>11.8</ele>
        <time>2021-09-11T09:20:34.000Z</time>
      </trkpt>
      <trkpt lat="40.93866" lon="-72.3109">
        <ele>11.9</ele>
        <time>2021-09-11T09:20:36.000Z</time>
      </trkpt>
      <trkpt lat="40.93866" lon="-72.3109">
        <ele>11.9</ele>
        <time>2021-09-11T09:20:36.000Z</time>
      </trkpt>
      <trkpt lat="40.93866" lon="-72.3109">
        <ele>11.9</ele>
        <time>2021-09-11T09:20:36.000Z</time>
      </trkpt>
      <trkpt lat="40.93871" lon="-72.31091">
        <ele>11.9</ele>
        <time>2021-09-11T09:20:37.000Z</time>
      </trkpt>
      <trkpt lat="40.93876" lon="-72.31092">
        <ele>11.9</ele>
        <time>2021-09-11T09:20:38.000Z</time>
      </trkpt>
      <trkpt lat="40.93882" lon="-72.31092">
        <ele>11.9</ele>
        <time>2021-09-11T09:20:39.000Z</time>
      </trkpt>
      <trkpt lat="40.9388999" lon="-72.31094">
        <ele>11.9</ele>
        <time>2021-09-11T09:20:40.000Z</time>
      </trkpt>
      <trkpt lat="40.93896" lon="-72.3109499">
        <ele>11.9</ele>
        <time>2021-09-11T09:20:41.000Z</time>
      </trkpt>
      <trkpt lat="40.93904" lon="-72.31099">
        <ele>11.9</ele>
        <time>2021-09-11T09:20:42.000Z</time>
      </trkpt>
      <trkpt lat="40.93908" lon="-72.311">
        <ele>11.9</ele>
        <time>2021-09-11T09:20:42.000Z</time>
      </trkpt>
      <trkpt lat="40.93926" lon="-72.3110699">
        <ele>11.9</ele>
        <time>2021-09-11T09:20:44.000Z</time>
      </trkpt>
      <trkpt lat="40.93945" lon="-72.31115">
        <ele>11.9</ele>
        <time>2021-09-11T09:20:46.000Z</time>
      </trkpt>
      <trkpt lat="40.94015" lon="-72.3114899">
        <ele>11.8</ele>
        <time>2021-09-11T09:20:54.000Z</time>
      </trkpt>
      <trkpt lat="40.94036" lon="-72.3116098">
        <ele>11.9</ele>
        <time>2021-09-11T09:20:57.000Z</time>
      </trkpt>
      <trkpt lat="40.94141" lon="-72.3122798">
        <ele>12.4</ele>
        <time>2021-09-11T09:21:10.000Z</time>
      </trkpt>
      <trkpt lat="40.94203" lon="-72.3127">
        <ele>13</ele>
        <time>2021-09-11T09:21:18.000Z</time>
      </trkpt>
      <trkpt lat="40.94305" lon="-72.3133599">
        <ele>13.4</ele>
        <time>2021-09-11T09:21:31.000Z</time>
      </trkpt>
      <trkpt lat="40.94359" lon="-72.31371">
        <ele>14.6</ele>
        <time>2021-09-11T09:21:38.000Z</time>
      </trkpt>
      <trkpt lat="40.94358" lon="-72.31373">
        <ele>14.6</ele>
        <time>2021-09-11T09:21:38.000Z</time>
      </trkpt>
      <trkpt lat="40.94374" lon="-72.31384">
        <ele>15</ele>
        <time>2021-09-11T09:21:40.000Z</time>
      </trkpt>
      <trkpt lat="40.94531" lon="-72.31488">
        <ele>17.4</ele>
        <time>2021-09-11T09:22:00.000Z</time>
      </trkpt>
      <trkpt lat="40.94579" lon="-72.3152">
        <ele>18.1</ele>
        <time>2021-09-11T09:22:06.000Z</time>
      </trkpt>
      <trkpt lat="40.94701" lon="-72.31598">
        <ele>19.2</ele>
        <time>2021-09-11T09:22:21.000Z</time>
      </trkpt>
      <trkpt lat="40.94982" lon="-72.3177799">
        <ele>24.7</ele>
        <time>2021-09-11T09:22:56.000Z</time>
      </trkpt>
      <trkpt lat="40.95098" lon="-72.31852">
        <ele>26.6</ele>
        <time>2021-09-11T09:23:10.000Z</time>
      </trkpt>
      <trkpt lat="40.95194" lon="-72.31911">
        <ele>27.7</ele>
        <time>2021-09-11T09:23:22.000Z</time>
      </trkpt>
      <trkpt lat="40.95267" lon="-72.31957">
        <ele>28</ele>
        <time>2021-09-11T09:23:31.000Z</time>
      </trkpt>
      <trkpt lat="40.95406" lon="-72.32044">
        <ele>28.7</ele>
        <time>2021-09-11T09:23:48.000Z</time>
      </trkpt>
      <trkpt lat="40.95443" lon="-72.32068">
        <ele>29.8</ele>
        <time>2021-09-11T09:23:53.000Z</time>
      </trkpt>
      <trkpt lat="40.95817" lon="-72.32305">
        <ele>37.3</ele>
        <time>2021-09-11T09:24:39.000Z</time>
      </trkpt>
      <trkpt lat="40.9581694" lon="-72.3230495">
        <ele>37.3</ele>
        <time>2021-09-11T09:24:39.000Z</time>
      </trkpt>
      <trkpt lat="40.95817" lon="-72.32305">
        <ele>37.3</ele>
        <time>2021-09-11T09:24:39.000Z</time>
      </trkpt>
      <trkpt lat="40.9581764" lon="-72.3230425">
        <ele>37.3</ele>
        <time>2021-09-11T09:24:39.000Z</time>
      </trkpt>
      <trkpt lat="40.9581821" lon="-72.3230358">
        <ele>37.3</ele>
        <time>2021-09-11T09:24:39.000Z</time>
      </trkpt>
      <trkpt lat="40.9581821" lon="-72.3230358">
        <ele>37.3</ele>
        <time>2021-09-11T09:24:39.000Z</time>
      </trkpt>
      <trkpt lat="40.9583" lon="-72.3229">
        <ele>37.3</ele>
        <time>2021-09-11T09:24:41.000Z</time>
      </trkpt>
      <trkpt lat="40.95839" lon="-72.32278">
        <ele>37.2</ele>
        <time>2021-09-11T09:24:42.000Z</time>
      </trkpt>
      <trkpt lat="40.95844" lon="-72.3227">
        <ele>37.1</ele>
        <time>2021-09-11T09:24:43.000Z</time>
      </trkpt>
      <trkpt lat="40.95847" lon="-72.32265">
        <ele>37</ele>
        <time>2021-09-11T09:24:44.000Z</time>
      </trkpt>
      <trkpt lat="40.95855" lon="-72.3224999">
        <ele>36.8</ele>
        <time>2021-09-11T09:24:46.000Z</time>
      </trkpt>
      <trkpt lat="40.9587" lon="-72.3222">
        <ele>36.2</ele>
        <time>2021-09-11T09:24:49.000Z</time>
      </trkpt>
      <trkpt lat="40.95914" lon="-72.3212399">
        <ele>35.5</ele>
        <time>2021-09-11T09:24:58.000Z</time>
      </trkpt>
      <trkpt lat="40.96016" lon="-72.3190999">
        <ele>34</ele>
        <time>2021-09-11T09:25:19.000Z</time>
      </trkpt>
      <trkpt lat="40.96063" lon="-72.3180899">
        <ele>34.2</ele>
        <time>2021-09-11T09:25:29.000Z</time>
      </trkpt>
      <trkpt lat="40.96093" lon="-72.31742">
        <ele>34.7</ele>
        <time>2021-09-11T09:25:36.000Z</time>
      </trkpt>
      <trkpt lat="40.96117" lon="-72.31687">
        <ele>34.8</ele>
        <time>2021-09-11T09:25:41.000Z</time>
      </trkpt>
      <trkpt lat="40.96122" lon="-72.3167598">
        <ele>34.8</ele>
        <time>2021-09-11T09:25:42.000Z</time>
      </trkpt>
      <trkpt lat="40.96123" lon="-72.3167399">
        <ele>34.8</ele>
        <time>2021-09-11T09:25:42.000Z</time>
      </trkpt>
      <trkpt lat="40.96122" lon="-72.31673">
        <ele>34.8</ele>
        <time>2021-09-11T09:25:42.000Z</time>
      </trkpt>
      <trkpt lat="40.96137" lon="-72.31639">
        <ele>34.9</ele>
        <time>2021-09-11T09:25:45.000Z</time>
      </trkpt>
      <trkpt lat="40.96361" lon="-72.3168">
        <ele>42.6</ele>
        <time>2021-09-11T09:26:10.000Z</time>
      </trkpt>
      <trkpt lat="40.96426" lon="-72.31693">
        <ele>43.4</ele>
        <time>2021-09-11T09:26:17.000Z</time>
      </trkpt>
      <trkpt lat="40.96476" lon="-72.31704">
        <ele>43</ele>
        <time>2021-09-11T09:26:23.000Z</time>
      </trkpt>
      <trkpt lat="40.96582" lon="-72.31708">
        <ele>43.9</ele>
        <time>2021-09-11T09:26:35.000Z</time>
      </trkpt>
      <trkpt lat="40.96589" lon="-72.3170999">
        <ele>43.7</ele>
        <time>2021-09-11T09:26:36.000Z</time>
      </trkpt>
      <trkpt lat="40.96655" lon="-72.31724">
        <ele>44.2</ele>
        <time>2021-09-11T09:26:43.000Z</time>
      </trkpt>
      <trkpt lat="40.96669" lon="-72.3172">
        <ele>44.2</ele>
        <time>2021-09-11T09:26:45.000Z</time>
      </trkpt>
      <trkpt lat="40.96727" lon="-72.3170099">
        <ele>41.7</ele>
        <time>2021-09-11T09:26:52.000Z</time>
      </trkpt>
      <trkpt lat="40.9677099" lon="-72.31696">
        <ele>40.4</ele>
        <time>2021-09-11T09:26:57.000Z</time>
      </trkpt>
      <trkpt lat="40.96789" lon="-72.3169199">
        <ele>40.4</ele>
        <time>2021-09-11T09:26:59.000Z</time>
      </trkpt>
      <trkpt lat="40.96807" lon="-72.31693">
        <ele>40.3</ele>
        <time>2021-09-11T09:27:01.000Z</time>
      </trkpt>
      <trkpt lat="40.96825" lon="-72.31696">
        <ele>40.3</ele>
        <time>2021-09-11T09:27:03.000Z</time>
      </trkpt>
      <trkpt lat="40.96846" lon="-72.31704">
        <ele>40.9</ele>
        <time>2021-09-11T09:27:05.000Z</time>
      </trkpt>
      <trkpt lat="40.96866" lon="-72.31711">
        <ele>41.6</ele>
        <time>2021-09-11T09:27:07.000Z</time>
      </trkpt>
      <trkpt lat="40.96878" lon="-72.31714">
        <ele>41.6</ele>
        <time>2021-09-11T09:27:08.000Z</time>
      </trkpt>
      <trkpt lat="40.96905" lon="-72.31715">
        <ele>41.9</ele>
        <time>2021-09-11T09:27:11.000Z</time>
      </trkpt>
      <trkpt lat="40.96938" lon="-72.31715">
        <ele>44</ele>
        <time>2021-09-11T09:27:15.000Z</time>
      </trkpt>
      <trkpt lat="40.97003" lon="-72.31708">
        <ele>47</ele>
        <time>2021-09-11T09:27:22.000Z</time>
      </trkpt>
      <trkpt lat="40.97012" lon="-72.31707">
        <ele>46.1</ele>
        <time>2021-09-11T09:27:23.000Z</time>
      </trkpt>
      <trkpt lat="40.97025" lon="-72.3170899">
        <ele>44.4</ele>
        <time>2021-09-11T09:27:24.000Z</time>
      </trkpt>
      <trkpt lat="40.97046" lon="-72.31716">
        <ele>43.2</ele>
        <time>2021-09-11T09:27:26.000Z</time>
      </trkpt>
      <trkpt lat="40.97073" lon="-72.31729">
        <ele>44.1</ele>
        <time>2021-09-11T09:27:29.000Z</time>
      </trkpt>
      <trkpt lat="40.97094" lon="-72.3173899">
        <ele>44.1</ele>
        <time>2021-09-11T09:27:31.000Z</time>
      </trkpt>
      <trkpt lat="40.97116" lon="-72.31747">
        <ele>43.6</ele>
        <time>2021-09-11T09:27:34.000Z</time>
      </trkpt>
      <trkpt lat="40.97159" lon="-72.31744">
        <ele>43.7</ele>
        <time>2021-09-11T09:27:39.000Z</time>
      </trkpt>
      <trkpt lat="40.97178" lon="-72.3174">
        <ele>43.5</ele>
        <time>2021-09-11T09:27:41.000Z</time>
      </trkpt>
      <trkpt lat="40.97225" lon="-72.3172099">
        <ele>44.4</ele>
        <time>2021-09-11T09:27:46.000Z</time>
      </trkpt>
      <trkpt lat="40.97269" lon="-72.31704">
        <ele>42.7</ele>
        <time>2021-09-11T09:27:51.000Z</time>
      </trkpt>
      <trkpt lat="40.97289" lon="-72.31697">
        <ele>42.1</ele>
        <time>2021-09-11T09:27:53.000Z</time>
      </trkpt>
      <trkpt lat="40.97298" lon="-72.31697">
        <ele>42.1</ele>
        <time>2021-09-11T09:27:54.000Z</time>
      </trkpt>
      <trkpt lat="40.97314" lon="-72.31697">
        <ele>42.1</ele>
        <time>2021-09-11T09:27:56.000Z</time>
      </trkpt>
      <trkpt lat="40.97332" lon="-72.31702">
        <ele>41.7</ele>
        <time>2021-09-11T09:27:58.000Z</time>
      </trkpt>
      <trkpt lat="40.9736199" lon="-72.3172099">
        <ele>41</ele>
        <time>2021-09-11T09:28:02.000Z</time>
      </trkpt>
      <trkpt lat="40.97483" lon="-72.31806">
        <ele>42.4</ele>
        <time>2021-09-11T09:28:17.000Z</time>
      </trkpt>
      <trkpt lat="40.97537" lon="-72.31871">
        <ele>44.1</ele>
        <time>2021-09-11T09:28:25.000Z</time>
      </trkpt>
      <trkpt lat="40.97587" lon="-72.3193299">
        <ele>44.3</ele>
        <time>2021-09-11T09:28:33.000Z</time>
      </trkpt>
      <trkpt lat="40.97598" lon="-72.31945">
        <ele>44.4</ele>
        <time>2021-09-11T09:28:35.000Z</time>
      </trkpt>
      <trkpt lat="40.97623" lon="-72.31959">
        <ele>42.6</ele>
        <time>2021-09-11T09:28:38.000Z</time>
      </trkpt>
      <trkpt lat="40.97659" lon="-72.31965">
        <ele>41.9</ele>
        <time>2021-09-11T09:28:42.000Z</time>
      </trkpt>
      <trkpt lat="40.97671" lon="-72.31968">
        <ele>42.1</ele>
        <time>2021-09-11T09:28:43.000Z</time>
      </trkpt>
      <trkpt lat="40.9769999" lon="-72.31992">
        <ele>41.8</ele>
        <time>2021-09-11T09:28:47.000Z</time>
      </trkpt>
      <trkpt lat="40.97722" lon="-72.3201598">
        <ele>41.2</ele>
        <time>2021-09-11T09:28:50.000Z</time>
      </trkpt>
      <trkpt lat="40.97749" lon="-72.32053">
        <ele>39</ele>
        <time>2021-09-11T09:28:54.000Z</time>
      </trkpt>
      <trkpt lat="40.97773" lon="-72.32065">
        <ele>38</ele>
        <time>2021-09-11T09:28:57.000Z</time>
      </trkpt>
      <trkpt lat="40.97795" lon="-72.32064">
        <ele>36.5</ele>
        <time>2021-09-11T09:28:59.000Z</time>
      </trkpt>
      <trkpt lat="40.97795" lon="-72.32064">
        <ele>36.5</ele>
        <time>2021-09-11T09:28:59.000Z</time>
      </trkpt>
      <trkpt lat="40.97796" lon="-72.32064">
        <ele>36.5</ele>
        <time>2021-09-11T09:28:59.000Z</time>
      </trkpt>
      <trkpt lat="40.9780299" lon="-72.32065">
        <ele>36</ele>
        <time>2021-09-11T09:29:00.000Z</time>
      </trkpt>
      <trkpt lat="40.97818" lon="-72.32066">
        <ele>35.6</ele>
        <time>2021-09-11T09:29:02.000Z</time>
      </trkpt>
      <trkpt lat="40.97827" lon="-72.32068">
        <ele>35.6</ele>
        <time>2021-09-11T09:29:03.000Z</time>
      </trkpt>
      <trkpt lat="40.9784" lon="-72.32073">
        <ele>35.4</ele>
        <time>2021-09-11T09:29:05.000Z</time>
      </trkpt>
      <trkpt lat="40.97858" lon="-72.3208499">
        <ele>35.2</ele>
        <time>2021-09-11T09:29:07.000Z</time>
      </trkpt>
      <trkpt lat="40.97885" lon="-72.3210299">
        <ele>33.9</ele>
        <time>2021-09-11T09:29:10.000Z</time>
      </trkpt>
      <trkpt lat="40.97901" lon="-72.32114">
        <ele>33.6</ele>
        <time>2021-09-11T09:29:12.000Z</time>
      </trkpt>
      <trkpt lat="40.9790134" lon="-72.3211352">
        <ele>33.6</ele>
        <time>2021-09-11T09:29:12.000Z</time>
      </trkpt>
      <trkpt lat="40.97901" lon="-72.32114">
        <ele>33.6</ele>
        <time>2021-09-11T09:29:12.000Z</time>
      </trkpt>
      <trkpt lat="40.97912" lon="-72.3212099">
        <ele>33.1</ele>
        <time>2021-09-11T09:29:13.000Z</time>
      </trkpt>
      <trkpt lat="40.97959" lon="-72.32154">
        <ele>31.8</ele>
        <time>2021-09-11T09:29:19.000Z</time>
      </trkpt>
      <trkpt lat="40.97992" lon="-72.32189">
        <ele>31.7</ele>
        <time>2021-09-11T09:29:24.000Z</time>
      </trkpt>
      <trkpt lat="40.98032" lon="-72.32238">
        <ele>29.6</ele>
        <time>2021-09-11T09:29:30.000Z</time>
      </trkpt>
      <trkpt lat="40.98059" lon="-72.32269">
        <ele>29.3</ele>
        <time>2021-09-11T09:29:34.000Z</time>
      </trkpt>
      <trkpt lat="40.98078" lon="-72.32289">
        <ele>28.9</ele>
        <time>2021-09-11T09:29:37.000Z</time>
      </trkpt>
      <trkpt lat="40.98092" lon="-72.32304">
        <ele>28.6</ele>
        <time>2021-09-11T09:29:39.000Z</time>
      </trkpt>
      <trkpt lat="40.98111" lon="-72.3232">
        <ele>28.3</ele>
        <time>2021-09-11T09:29:42.000Z</time>
      </trkpt>
      <trkpt lat="40.9812" lon="-72.3232699">
        <ele>28.1</ele>
        <time>2021-09-11T09:29:43.000Z</time>
      </trkpt>
      <trkpt lat="40.98149" lon="-72.32341">
        <ele>26.8</ele>
        <time>2021-09-11T09:29:46.000Z</time>
      </trkpt>
      <trkpt lat="40.98166" lon="-72.3235">
        <ele>26.5</ele>
        <time>2021-09-11T09:29:48.000Z</time>
      </trkpt>
      <trkpt lat="40.9818" lon="-72.32358">
        <ele>26.3</ele>
        <time>2021-09-11T09:29:50.000Z</time>
      </trkpt>
      <trkpt lat="40.98202" lon="-72.32373">
        <ele>25.8</ele>
        <time>2021-09-11T09:29:53.000Z</time>
      </trkpt>
      <trkpt lat="40.98234" lon="-72.3239399">
        <ele>23.7</ele>
        <time>2021-09-11T09:29:57.000Z</time>
      </trkpt>
      <trkpt lat="40.98279" lon="-72.32423">
        <ele>22.7</ele>
        <time>2021-09-11T09:30:03.000Z</time>
      </trkpt>
      <trkpt lat="40.9833" lon="-72.32449">
        <ele>22.6</ele>
        <time>2021-09-11T09:30:09.000Z</time>
      </trkpt>
      <trkpt lat="40.98349" lon="-72.32456">
        <ele>22.1</ele>
        <time>2021-09-11T09:30:11.000Z</time>
      </trkpt>
      <trkpt lat="40.98362" lon="-72.32461">
        <ele>21.7</ele>
        <time>2021-09-11T09:30:13.000Z</time>
      </trkpt>
      <trkpt lat="40.9838499" lon="-72.32467">
        <ele>21.7</ele>
        <time>2021-09-11T09:30:16.000Z</time>
      </trkpt>
      <trkpt lat="40.98403" lon="-72.32468">
        <ele>21.1</ele>
        <time>2021-09-11T09:30:18.000Z</time>
      </trkpt>
      <trkpt lat="40.98523" lon="-72.32487">
        <ele>13.3</ele>
        <time>2021-09-11T09:30:31.000Z</time>
      </trkpt>
      <trkpt lat="40.9858" lon="-72.32495">
        <ele>10.8</ele>
        <time>2021-09-11T09:30:37.000Z</time>
      </trkpt>
      <trkpt lat="40.98633" lon="-72.32502">
        <ele>9.5</ele>
        <time>2021-09-11T09:30:43.000Z</time>
      </trkpt>
      <trkpt lat="40.98656" lon="-72.32507">
        <ele>8.6</ele>
        <time>2021-09-11T09:30:46.000Z</time>
      </trkpt>
      <trkpt lat="40.98681" lon="-72.32516">
        <ele>8</ele>
        <time>2021-09-11T09:30:49.000Z</time>
      </trkpt>
      <trkpt lat="40.98718" lon="-72.32531">
        <ele>8.1</ele>
        <time>2021-09-11T09:30:53.000Z</time>
      </trkpt>
      <trkpt lat="40.98745" lon="-72.32543">
        <ele>7.7</ele>
        <time>2021-09-11T09:30:56.000Z</time>
      </trkpt>
      <trkpt lat="40.98833" lon="-72.32584">
        <ele>5.3</ele>
        <time>2021-09-11T09:31:06.000Z</time>
      </trkpt>
      <trkpt lat="40.98859" lon="-72.32596">
        <ele>4.9</ele>
        <time>2021-09-11T09:31:09.000Z</time>
      </trkpt>
      <trkpt lat="40.98885" lon="-72.32608">
        <ele>4.2</ele>
        <time>2021-09-11T09:31:12.000Z</time>
      </trkpt>
      <trkpt lat="40.98906" lon="-72.32622">
        <ele>3.9</ele>
        <time>2021-09-11T09:31:15.000Z</time>
      </trkpt>
      <trkpt lat="40.98924" lon="-72.32637">
        <ele>4.2</ele>
        <time>2021-09-11T09:31:17.000Z</time>
      </trkpt>
      <trkpt lat="40.9892408" lon="-72.3263658">
        <ele>4.2</ele>
        <time>2021-09-11T09:31:17.000Z</time>
      </trkpt>
      <trkpt lat="40.98924" lon="-72.32637">
        <ele>4.2</ele>
        <time>2021-09-11T09:31:17.000Z</time>
      </trkpt>
      <trkpt lat="40.9895" lon="-72.32663">
        <ele>3.9</ele>
        <time>2021-09-11T09:31:21.000Z</time>
      </trkpt>
      <trkpt lat="40.989499" lon="-72.3266304">
        <ele>4</ele>
        <time>2021-09-11T09:31:21.000Z</time>
      </trkpt>
      <trkpt lat="40.9895" lon="-72.32663">
        <ele>3.9</ele>
        <time>2021-09-11T09:31:21.000Z</time>
      </trkpt>
      <trkpt lat="40.99017" lon="-72.32732">
        <ele>3.3</ele>
        <time>2021-09-11T09:31:30.000Z</time>
      </trkpt>
      <trkpt lat="40.99039" lon="-72.32756">
        <ele>3.3</ele>
        <time>2021-09-11T09:31:33.000Z</time>
      </trkpt>
      <trkpt lat="40.99066" lon="-72.3278799">
        <ele>3.4</ele>
        <time>2021-09-11T09:31:37.000Z</time>
      </trkpt>
      <trkpt lat="40.99191" lon="-72.32939">
        <ele>5.5</ele>
        <time>2021-09-11T09:31:56.000Z</time>
      </trkpt>
      <trkpt lat="40.99234" lon="-72.32989">
        <ele>4.9</ele>
        <time>2021-09-11T09:32:02.000Z</time>
      </trkpt>
      <trkpt lat="40.99256" lon="-72.33009">
        <ele>4.8</ele>
        <time>2021-09-11T09:32:05.000Z</time>
      </trkpt>
      <trkpt lat="40.99302" lon="-72.33045">
        <ele>3.6</ele>
        <time>2021-09-11T09:32:11.000Z</time>
      </trkpt>
      <trkpt lat="40.9931" lon="-72.33052">
        <ele>3.5</ele>
        <time>2021-09-11T09:32:12.000Z</time>
      </trkpt>
      <trkpt lat="40.9932" lon="-72.33063">
        <ele>3.6</ele>
        <time>2021-09-11T09:32:13.000Z</time>
      </trkpt>
      <trkpt lat="40.99335" lon="-72.33082">
        <ele>3.7</ele>
        <time>2021-09-11T09:32:15.000Z</time>
      </trkpt>
      <trkpt lat="40.9935" lon="-72.3310599">
        <ele>3.5</ele>
        <time>2021-09-11T09:32:18.000Z</time>
      </trkpt>
      <trkpt lat="40.99378" lon="-72.33147">
        <ele>3.1</ele>
        <time>2021-09-11T09:32:23.000Z</time>
      </trkpt>
      <trkpt lat="40.99391" lon="-72.3317">
        <ele>3.2</ele>
        <time>2021-09-11T09:32:25.000Z</time>
      </trkpt>
      <trkpt lat="40.9939059" lon="-72.3316978">
        <ele>3.2</ele>
        <time>2021-09-11T09:32:25.000Z</time>
      </trkpt>
      <trkpt lat="40.99391" lon="-72.3317">
        <ele>3.2</ele>
        <time>2021-09-11T09:32:25.000Z</time>
      </trkpt>
      <trkpt lat="40.994" lon="-72.33176">
        <ele>3.1</ele>
        <time>2021-09-11T09:32:26.000Z</time>
      </trkpt>
      <trkpt lat="40.99404" lon="-72.33179">
        <ele>2.9</ele>
        <time>2021-09-11T09:32:27.000Z</time>
      </trkpt>
      <trkpt lat="40.99407" lon="-72.33181">
        <ele>2.9</ele>
        <time>2021-09-11T09:32:27.000Z</time>
      </trkpt>
      <trkpt lat="40.99411" lon="-72.3318199">
        <ele>2.8</ele>
        <time>2021-09-11T09:32:27.000Z</time>
      </trkpt>
      <trkpt lat="40.99414" lon="-72.33183">
        <ele>2.7</ele>
        <time>2021-09-11T09:32:27.000Z</time>
      </trkpt>
      <trkpt lat="40.99422" lon="-72.33186">
        <ele>2.6</ele>
        <time>2021-09-11T09:32:28.000Z</time>
      </trkpt>
      <trkpt lat="40.99426" lon="-72.33185">
        <ele>2.5</ele>
        <time>2021-09-11T09:32:28.000Z</time>
      </trkpt>
      <trkpt lat="40.9943" lon="-72.33181">
        <ele>2.4</ele>
        <time>2021-09-11T09:32:29.000Z</time>
      </trkpt>
      <trkpt lat="40.99434" lon="-72.33178">
        <ele>2.3</ele>
        <time>2021-09-11T09:32:30.000Z</time>
      </trkpt>
      <trkpt lat="40.99438" lon="-72.33174">
        <ele>2.2</ele>
        <time>2021-09-11T09:32:31.000Z</time>
      </trkpt>
      <trkpt lat="40.99442" lon="-72.33169">
        <ele>2.1</ele>
        <time>2021-09-11T09:32:32.000Z</time>
      </trkpt>
      <trkpt lat="40.99444" lon="-72.3316399">
        <ele>2</ele>
        <time>2021-09-11T09:32:32.000Z</time>
      </trkpt>
      <trkpt lat="40.99447" lon="-72.33158">
        <ele>1.9</ele>
        <time>2021-09-11T09:32:33.000Z</time>
      </trkpt>
      <trkpt lat="40.99454" lon="-72.33149">
        <ele>1.8</ele>
        <time>2021-09-11T09:32:34.000Z</time>
      </trkpt>
      <trkpt lat="40.99457" lon="-72.33137">
        <ele>1.6</ele>
        <time>2021-09-11T09:32:35.000Z</time>
      </trkpt>
      <trkpt lat="40.99468" lon="-72.33096">
        <ele>1.3</ele>
        <time>2021-09-11T09:32:39.000Z</time>
      </trkpt>
      <trkpt lat="40.99475" lon="-72.33066">
        <ele>1.3</ele>
        <time>2021-09-11T09:32:42.000Z</time>
      </trkpt>
      <trkpt lat="40.99479" lon="-72.33044">
        <ele>1.3</ele>
        <time>2021-09-11T09:32:44.000Z</time>
      </trkpt>
      <trkpt lat="40.99481" lon="-72.33028">
        <ele>1.3</ele>
        <time>2021-09-11T09:32:45.000Z</time>
      </trkpt>
      <trkpt lat="40.99484" lon="-72.33013">
        <ele>1.3</ele>
        <time>2021-09-11T09:32:46.000Z</time>
      </trkpt>
      <trkpt lat="40.99485" lon="-72.32995">
        <ele>1.3</ele>
        <time>2021-09-11T09:32:48.000Z</time>
      </trkpt>
      <trkpt lat="40.99487" lon="-72.32975">
        <ele>1.2</ele>
        <time>2021-09-11T09:32:50.000Z</time>
      </trkpt>
      <trkpt lat="40.99488" lon="-72.32955">
        <ele>1.2</ele>
        <time>2021-09-11T09:32:52.000Z</time>
      </trkpt>
      <trkpt lat="40.9949" lon="-72.32911">
        <ele>0.9</ele>
        <time>2021-09-11T09:32:56.000Z</time>
      </trkpt>
      <trkpt lat="40.99492" lon="-72.32885">
        <ele>0.9</ele>
        <time>2021-09-11T09:32:58.000Z</time>
      </trkpt>
      <trkpt lat="40.9949299" lon="-72.32874">
        <ele>0.8</ele>
        <time>2021-09-11T09:32:59.000Z</time>
      </trkpt>
      <trkpt lat="40.99494" lon="-72.3286399">
        <ele>0.8</ele>
        <time>2021-09-11T09:33:00.000Z</time>
      </trkpt>
      <trkpt lat="40.99497" lon="-72.3284">
        <ele>0.7</ele>
        <time>2021-09-11T09:33:02.000Z</time>
      </trkpt>
      <trkpt lat="40.9950199" lon="-72.3281499">
        <ele>0.7</ele>
        <time>2021-09-11T09:33:04.000Z</time>
      </trkpt>
      <trkpt lat="40.99505" lon="-72.32799">
        <ele>0.7</ele>
        <time>2021-09-11T09:33:05.000Z</time>
      </trkpt>
      <trkpt lat="40.99513" lon="-72.32762">
        <ele>0.7</ele>
        <time>2021-09-11T09:33:08.000Z</time>
      </trkpt>
      <trkpt lat="40.99521" lon="-72.32734">
        <ele>0.6</ele>
        <time>2021-09-11T09:33:11.000Z</time>
      </trkpt>
      <trkpt lat="40.99529" lon="-72.3271199">
        <ele>0.6</ele>
        <time>2021-09-11T09:33:13.000Z</time>
      </trkpt>
      <trkpt lat="40.99538" lon="-72.32688">
        <ele>0.7</ele>
        <time>2021-09-11T09:33:15.000Z</time>
      </trkpt>
      <trkpt lat="40.9954899" lon="-72.32663">
        <ele>0.7</ele>
        <time>2021-09-11T09:33:17.000Z</time>
      </trkpt>
      <trkpt lat="40.99557" lon="-72.32646">
        <ele>0.8</ele>
        <time>2021-09-11T09:33:19.000Z</time>
      </trkpt>
      <trkpt lat="40.99569" lon="-72.32624">
        <ele>0.8</ele>
        <time>2021-09-11T09:33:21.000Z</time>
      </trkpt>
      <trkpt lat="40.99586" lon="-72.32593">
        <ele>0.9</ele>
        <time>2021-09-11T09:33:24.000Z</time>
      </trkpt>
      <trkpt lat="40.99598" lon="-72.32575">
        <ele>0.8</ele>
        <time>2021-09-11T09:33:26.000Z</time>
      </trkpt>
      <trkpt lat="40.99633" lon="-72.32525">
        <ele>0.9</ele>
        <time>2021-09-11T09:33:32.000Z</time>
      </trkpt>
      <trkpt lat="40.99729" lon="-72.3238499">
        <ele>1.04700476205</ele>
        <time>2021-09-11T09:33:48.000Z</time>
      </trkpt>
      <trkpt lat="40.99779" lon="-72.32312">
        <ele>1.12360847221</ele>
        <time>2021-09-11T09:33:56.000Z</time>
      </trkpt>
      <trkpt lat="40.99818" lon="-72.32258">
        <ele>1.18169201327</ele>
        <time>2021-09-11T09:34:02.000Z</time>
      </trkpt>
    </trkseg>
  </trk>
</gpx>

<!--
Performance optimized by W3 Total Cache. Learn more: https://www.boldgrid.com/w3-total-cache/?utm_source=w3tc&utm_medium=footer_comment&utm_campaign=free_plugin

Page Caching using Disk: Enhanced{w3tc_pagecache_reject_reason} 

Served from: www.aquabike.world @ 2026-05-10 21:35:39 by W3 Total Cache
-->